Wetterdaten: Samstag, 26.10.2013
Datum Zeit Temp. Aussen +5cm Feuchte Auss Luftdruck Regen Sonnenschein Regendauer UV Solar Windben
26.10.2013 00:00 15,6 C 13,9 C 98 % 1011,3 hPa 0,2 l/m 0 min 2 min 0,0 UV-I 0 W/m 0,0 km/h (0 Bft)
26.10.2013 00:02 15,6 C 13,9 C 98 % 1011,3 hPa 0,0 l/m 0 min 2 min 0,0 UV-I 0 W/m 0,0 km/h (0 Bft)
26.10.2013 00:06 15,6 C 13,9 C 98 % 1011,4 hPa 0,0 l/m 0 min 2 min 0,0 UV-I 0 W/m 0,0 km/h (0 Bft)
26.10.2013 00:08 15,6 C 13,9 C 98 % 1011,4 hPa 0,0 l/m 0 min 2 min 0,0 UV-I 0 W/m 0,0 km/h (0 Bft)
26.10.2013 00:10 15,6 C 13,9 C 98 % 1011,5 hPa 0,0 l/m 0 min 2 min 0,0 UV-I 0 W/m 0,0 km/h (0 Bft)
26.10.2013 00:12 15,6 C 13,9 C 98 % 1011,4 hPa 0,0 l/m 0 min 2 min 0,0 UV-I 0 W/m 0,0 km/h (0 Bft)
26.10.2013 00:14 15,6 C 13,9 C 98 % 1011,5 hPa 0,0 l/m 0 min 2 min 0,0 UV-I 0 W/m 0,0 km/h (0 Bft)
26.10.2013 00:16 15,6 C 13,9 C 98 % 1011,4 hPa 0,0 l/m 0 min 2 min 0,0 UV-I 0 W/m 0,0 km/h (0 Bft)
26.10.2013 00:18 15,6 C 13,9 C 98 % 1011,4 hPa 0,0 l/m 0 min 2 min 0,0 UV-I 0 W/m 0,0 km/h (0 Bft)
26.10.2013 00:20 15,6 C 13,9 C 99 % 1011,5 hPa 0,0 l/m 0 min 2 min 0,0 UV-I 0 W/m 7,7 km/h (2 Bft)
26.10.2013 00:22 15,6 C 13,9 C 99 % 1011,4 hPa 0,0 l/m 0 min 2 min 0,0 UV-I 0 W/m 0,0 km/h (0 Bft)
26.10.2013 00:24 15,6 C 13,9 C 99 % 1011,4 hPa 0,0 l/m 0 min 0 min 0,0 UV-I 0 W/m 0,0 km/h (0 Bft)
26.10.2013 00:26 15,6 C 13,9 C 99 % 1011,6 hPa 0,0 l/m 0 min 2 min 0,0 UV-I 0 W/m 0,0 km/h (0 Bft)
26.10.2013 00:28 15,6 C 13,9 C 99 % 1011,5 hPa 0,0 l/m 0 min 2 min 0,0 UV-I 0 W/m 0,0 km/h (0 Bft)
26.10.2013 00:30 15,6 C 13,9 C 99 % 1011,5 hPa 0,0 l/m 0 min 2 min 0,0 UV-I 0 W/m 0,0 km/h (0 Bft)
26.10.2013 00:32 15,6 C 13,9 C 99 % 1011,5 hPa 0,0 l/m 0 min 2 min 0,0 UV-I 0 W/m 0,0 km/h (0 Bft)
26.10.2013 00:34 15,7 C 13,9 C 99 % 1011,6 hPa 0,0 l/m 0 min 2 min 0,0 UV-I 0 W/m 2,6 km/h (1 Bft)
26.10.2013 00:36 15,7 C 13,9 C 99 % 1011,5 hPa 0,0 l/m 0 min 2 min 0,0 UV-I 0 W/m 0,0 km/h (0 Bft)
26.10.2013 00:38 15,7 C 13,9 C 99 % 1011,4 hPa 0,0 l/m 0 min 2 min 0,0 UV-I 0 W/m 0,0 km/h (0 Bft)
26.10.2013 00:40 15,7 C 13,9 C 99 % 1011,4 hPa 0,0 l/m 0 min 2 min 0,0 UV-I 0 W/m 0,0 km/h (0 Bft)
26.10.2013 00:42 15,7 C 13,9 C 99 % 1011,4 hPa 0,0 l/m 0 min 2 min 0,0 UV-I 0 W/m 5,1 km/h (1 Bft)
26.10.2013 00:44 15,7 C 13,9 C 99 % 1011,5 hPa 0,0 l/m 0 min 2 min 0,0 UV-I 0 W/m 2,6 km/h (1 Bft)
26.10.2013 00:46 15,7 C 13,9 C 99 % 1011,5 hPa 0,0 l/m 0 min 2 min 0,0 UV-I 0 W/m 2,6 km/h (1 Bft)
26.10.2013 00:48 15,7 C 13,9 C 99 % 1011,5 hPa 0,0 l/m 0 min 2 min 0,0 UV-I 0 W/m 0,0 km/h (0 Bft)
26.10.2013 00:50 15,7 C 13,9 C 99 % 1011,5 hPa 0,0 l/m 0 min 2 min 0,0 UV-I 0 W/m 5,1 km/h (1 Bft)
26.10.2013 00:52 15,7 C 13,9 C 99 % 1011,5 hPa 0,0 l/m 0 min 2 min 0,0 UV-I 0 W/m 2,6 km/h (1 Bft)
26.10.2013 00:54 15,7 C 13,9 C 99 % 1011,5 hPa 0,0 l/m 0 min 2 min 0,0 UV-I 0 W/m 0,0 km/h (0 Bft)
26.10.2013 00:56 15,7 C 13,9 C 99 % 1011,5 hPa 0,0 l/m 0 min 2 min 0,0 UV-I 0 W/m 0,0 km/h (0 Bft)
26.10.2013 00:58 15,6 C 13,9 C 99 % 1011,4 hPa 0,0 l/m 0 min 2 min 0,0 UV-I 0 W/m 0,0 km/h (0 Bft)
26.10.2013 01:00 15,6 C 13,9 C 99 % 1011,5 hPa 0,0 l/m 0 min 2 min 0,0 UV-I 0 W/m 0,0 km/h (0 Bft)
26.10.2013 01:02 15,6 C 13,9 C 99 % 1011,5 hPa 0,0 l/m 0 min 2 min 0,0 UV-I 0 W/m 0,0 km/h (0 Bft)
26.10.2013 01:06 15,6 C 13,9 C 99 % 1011,4 hPa 0,2 l/m 0 min 2 min 0,0 UV-I 0 W/m 0,0 km/h (0 Bft)
26.10.2013 01:08 15,6 C 13,9 C 99 % 1011,4 hPa 0,0 l/m 0 min 2 min 0,0 UV-I 0 W/m 0,0 km/h (0 Bft)
26.10.2013 01:10 15,6 C 13,9 C 99 % 1011,4 hPa 0,0 l/m 0 min 2 min 0,0 UV-I 0 W/m 0,0 km/h (0 Bft)
26.10.2013 01:12 15,6 C 13,9 C 99 % 1011,3 hPa 0,0 l/m 0 min 2 min 0,0 UV-I 0 W/m 0,0 km/h (0 Bft)
26.10.2013 01:14 15,6 C 13,9 C 99 % 1011,4 hPa 0,2 l/m 0 min 2 min 0,0 UV-I 0 W/m 0,0 km/h (0 Bft)
26.10.2013 01:16 15,5 C 13,9 C 99 % 1011,3 hPa 0,0 l/m 0 min 2 min 0,0 UV-I 0 W/m 5,1 km/h (1 Bft)
26.10.2013 01:18 15,5 C 13,9 C 99 % 1011,2 hPa 0,0 l/m 0 min 2 min 0,0 UV-I 0 W/m 5,1 km/h (1 Bft)
26.10.2013 01:20 15,5 C 13,9 C 99 % 1011,2 hPa 0,0 l/m 0 min 2 min 0,0 UV-I 0 W/m 0,0 km/h (0 Bft)
26.10.2013 01:22 15,5 C 13,9 C 99 % 1011,3 hPa 0,0 l/m 0 min 2 min 0,0 UV-I 0 W/m 2,6 km/h (1 Bft)
26.10.2013 01:24 15,5 C 13,9 C 99 % 1011,2 hPa 0,0 l/m 0 min 0 min 0,0 UV-I 0 W/m 0,0 km/h (0 Bft)
26.10.2013 01:26 15,5 C 13,9 C 99 % 1011,3 hPa 0,0 l/m 0 min 2 min 0,0 UV-I 0 W/m 0,0 km/h (0 Bft)
26.10.2013 01:28 15,4 C 13,9 C 99 % 1011,2 hPa 0,0 l/m 0 min 2 min 0,0 UV-I 0 W/m 0,0 km/h (0 Bft)
26.10.2013 01:30 15,4 C 13,9 C 99 % 1011,1 hPa 0,0 l/m 0 min 2 min 0,0 UV-I 0 W/m 2,6 km/h (1 Bft)
26.10.2013 01:32 15,4 C 13,9 C 99 % 1011,2 hPa 0,0 l/m 0 min 2 min 0,0 UV-I 0 W/m 0,0 km/h (0 Bft)
26.10.2013 01:34 15,4 C 13,9 C 99 % 1011,2 hPa 0,0 l/m 0 min 2 min 0,0 UV-I 0 W/m 2,6 km/h (1 Bft)
26.10.2013 01:36 15,4 C 13,9 C 99 % 1011,2 hPa 0,0 l/m 0 min 2 min 0,0 UV-I 0 W/m 7,7 km/h (2 Bft)
26.10.2013 01:38 15,4 C 13,9 C 99 % 1010,9 hPa 0,0 l/m 0 min 2 min 0,0 UV-I 0 W/m 2,6 km/h (1 Bft)
26.10.2013 01:40 15,4 C 13,9 C 99 % 1010,9 hPa 0,0 l/m 0 min 2 min 0,0 UV-I 0 W/m 7,7 km/h (2 Bft)
26.10.2013 01:42 15,4 C 13,9 C 99 % 1010,9 hPa 0,0 l/m 0 min 2 min 0,0 UV-I 0 W/m 2,6 km/h (1 Bft)
26.10.2013 01:44 15,4 C 13,9 C 99 % 1010,9 hPa 0,0 l/m 0 min 2 min 0,0 UV-I 0 W/m 0,0 km/h (0 Bft)
26.10.2013 01:46 15,3 C 13,9 C 99 % 1010,9 hPa 0,0 l/m 0 min 2 min 0,0 UV-I 0 W/m 0,0 km/h (0 Bft)
26.10.2013 01:48 15,3 C 13,9 C 99 % 1010,9 hPa 0,0 l/m 0 min 2 min 0,0 UV-I 0 W/m 2,6 km/h (1 Bft)
26.10.2013 01:50 15,3 C 13,9 C 99 % 1010,9 hPa 0,0 l/m 0 min 0 min 0,0 UV-I 0 W/m 10,3 km/h (2 Bft)
26.10.2013 01:52 15,3 C 13,9 C 99 % 1010,9 hPa 0,0 l/m 0 min 0 min 0,0 UV-I 0 W/m 0,0 km/h (0 Bft)
26.10.2013 01:54 15,3 C 13,9 C 99 % 1010,8 hPa 0,0 l/m 0 min 0 min 0,0 UV-I 0 W/m 0,0 km/h (0 Bft)
26.10.2013 01:56 15,3 C 13,9 C 99 % 1010,8 hPa 0,0 l/m 0 min 0 min 0,0 UV-I 0 W/m 5,1 km/h (1 Bft)
26.10.2013 01:58 15,2 C 13,9 C 99 % 1010,8 hPa 0,0 l/m 0 min 0 min 0,0 UV-I 0 W/m 5,1 km/h (1 Bft)
26.10.2013 02:00 15,2 C 13,9 C 99 % 1010,9 hPa 0,0 l/m 0 min 0 min 0,0 UV-I 0 W/m 0,0 km/h (0 Bft)
26.10.2013 02:02 15,2 C 13,9 C 99 % 1010,9 hPa 0,0 l/m 0 min 2 min 0,0 UV-I 0 W/m 0,0 km/h (0 Bft)
26.10.2013 02:06 15,2 C 13,9 C 99 % 1011,0 hPa 0,0 l/m 0 min 0 min 0,0 UV-I 0 W/m 7,7 km/h (2 Bft)
26.10.2013 02:08 15,2 C 13,9 C 99 % 1011,1 hPa 0,0 l/m 0 min 0 min 0,0 UV-I 0 W/m 0,0 km/h (0 Bft)
26.10.2013 02:10 15,2 C 13,9 C 99 % 1011,1 hPa 0,0 l/m 0 min 0 min 0,0 UV-I 0 W/m 0,0 km/h (0 Bft)
26.10.2013 02:12 15,2 C 13,9 C 99 % 1011,2 hPa 0,0 l/m 0 min 0 min 0,0 UV-I 0 W/m 5,1 km/h (1 Bft)
26.10.2013 02:14 15,2 C 13,9 C 99 % 1011,3 hPa 0,0 l/m 0 min 0 min 0,0 UV-I 0 W/m 10,3 km/h (2 Bft)
26.10.2013 02:16 15,2 C 13,9 C 99 % 1011,4 hPa 0,0 l/m 0 min 0 min 0,0 UV-I 0 W/m 10,3 km/h (2 Bft)
26.10.2013 02:18 15,2 C 13,9 C 99 % 1011,3 hPa 0,0 l/m 0 min 0 min 0,0 UV-I 0 W/m 0,0 km/h (0 Bft)
26.10.2013 02:20 15,2 C 13,9 C 99 % 1011,3 hPa 0,0 l/m 0 min 0 min 0,0 UV-I 0 W/m 5,1 km/h (1 Bft)
26.10.2013 02:22 15,2 C 13,9 C 99 % 1011,2 hPa 0,0 l/m 0 min 0 min 0,0 UV-I 0 W/m 5,1 km/h (1 Bft)
26.10.2013 02:24 15,2 C 13,9 C 99 % 1011,2 hPa 0,0 l/m 0 min 0 min 0,0 UV-I 0 W/m 5,1 km/h (1 Bft)
26.10.2013 02:26 15,2 C 13,9 C 99 % 1011,1 hPa 0,0 l/m 0 min 0 min 0,0 UV-I 0 W/m 2,6 km/h (1 Bft)
26.10.2013 02:28 15,2 C 13,9 C 99 % 1011,0 hPa 0,0 l/m 0 min 0 min 0,0 UV-I 0 W/m 7,7 km/h (2 Bft)
26.10.2013 02:30 15,1 C 13,9 C 99 % 1011,0 hPa 0,0 l/m 0 min 0 min 0,0 UV-I 0 W/m 2,6 km/h (1 Bft)
26.10.2013 02:32 15,1 C 13,9 C 99 % 1011,0 hPa 0,0 l/m 0 min 0 min 0,0 UV-I 0 W/m 7,7 km/h (2 Bft)
26.10.2013 02:34 15,1 C 13,9 C 99 % 1011,0 hPa 0,0 l/m 0 min 0 min 0,0 UV-I 0 W/m 5,1 km/h (1 Bft)
26.10.2013 02:36 15,1 C 13,9 C 99 % 1010,9 hPa 0,0 l/m 0 min 0 min 0,0 UV-I 0 W/m 5,1 km/h (1 Bft)
26.10.2013 02:38 15,1 C 13,9 C 99 % 1010,9 hPa 0,0 l/m 0 min 0 min 0,0 UV-I 0 W/m 5,1 km/h (1 Bft)
26.10.2013 02:40 15,1 C 13,3 C 99 % 1010,9 hPa 0,0 l/m 0 min 0 min 0,0 UV-I 0 W/m 0,0 km/h (0 Bft)
26.10.2013 02:42 15,1 C 13,3 C 99 % 1010,8 hPa 0,0 l/m 0 min 0 min 0,0 UV-I 0 W/m 7,7 km/h (2 Bft)
26.10.2013 02:44 15,1 C 13,3 C 99 % 1010,9 hPa 0,0 l/m 0 min 0 min 0,0 UV-I 0 W/m 7,7 km/h (2 Bft)
26.10.2013 02:46 15,1 C 13,3 C 99 % 1010,9 hPa 0,0 l/m 0 min 0 min 0,0 UV-I 0 W/m 12,9 km/h (3 Bft)
26.10.2013 02:48 15,0 C 13,3 C 99 % 1010,8 hPa 0,0 l/m 0 min 0 min 0,0 UV-I 0 W/m 10,3 km/h (2 Bft)
26.10.2013 02:50 15,0 C 13,3 C 99 % 1010,8 hPa 0,0 l/m 0 min 0 min 0,0 UV-I 0 W/m 5,1 km/h (1 Bft)
26.10.2013 02:52 15,0 C 13,3 C 99 % 1010,9 hPa 0,0 l/m 0 min 0 min 0,0 UV-I 0 W/m 7,7 km/h (2 Bft)
26.10.2013 02:54 15,0 C 13,3 C 99 % 1010,8 hPa 0,0 l/m 0 min 0 min 0,0 UV-I 0 W/m 2,6 km/h (1 Bft)
26.10.2013 02:56 15,0 C 13,3 C 99 % 1010,8 hPa 0,0 l/m 0 min 0 min 0,0 UV-I 0 W/m 10,3 km/h (2 Bft)
26.10.2013 02:58 15,0 C 13,3 C 99 % 1010,8 hPa 0,0 l/m 0 min 0 min 0,0 UV-I 0 W/m 0,0 km/h (0 Bft)
26.10.2013 03:00 14,9 C 13,3 C 99 % 1010,8 hPa 0,0 l/m 0 min 0 min 0,0 UV-I 0 W/m 0,0 km/h (0 Bft)
26.10.2013 03:02 14,9 C 13,3 C 99 % 1010,8 hPa 0,0 l/m 0 min 0 min 0,0 UV-I 0 W/m 7,7 km/h (2 Bft)
26.10.2013 03:06 14,9 C 13,3 C 99 % 1010,9 hPa 0,0 l/m 0 min 0 min 0,0 UV-I 0 W/m 7,7 km/h (2 Bft)
26.10.2013 03:08 14,9 C 13,3 C 99 % 1010,9 hPa 0,0 l/m 0 min 0 min 0,0 UV-I 0 W/m 0,0 km/h (0 Bft)
26.10.2013 03:10 14,9 C 13,3 C 99 % 1010,9 hPa 0,0 l/m 0 min 0 min 0,0 UV-I 0 W/m 5,1 km/h (1 Bft)
26.10.2013 03:12 14,9 C 13,3 C 99 % 1011,0 hPa 0,0 l/m 0 min 0 min 0,0 UV-I 0 W/m 0,0 km/h (0 Bft)
26.10.2013 03:14 14,9 C 13,3 C 99 % 1011,0 hPa 0,0 l/m 0 min 0 min 0,0 UV-I 0 W/m 0,0 km/h (0 Bft)
26.10.2013 03:16 14,9 C 13,3 C 99 % 1011,1 hPa 0,0 l/m 0 min 0 min 0,0 UV-I 0 W/m 0,0 km/h (0 Bft)
26.10.2013 03:18 14,9 C 13,3 C 99 % 1011,1 hPa 0,0 l/m 0 min 0 min 0,0 UV-I 0 W/m 2,6 km/h (1 Bft)
26.10.2013 03:20 14,8 C 13,3 C 99 % 1011,0 hPa 0,0 l/m 0 min 0 min 0,0 UV-I 0 W/m 5,1 km/h (1 Bft)
26.10.2013 03:22 14,8 C 13,3 C 99 % 1011,0 hPa 0,0 l/m 0 min 0 min 0,0 UV-I 0 W/m 7,7 km/h (2 Bft)
26.10.2013 03:24 14,8 C 13,3 C 99 % 1011,0 hPa 0,0 l/m 0 min 0 min 0,0 UV-I 0 W/m 0,0 km/h (0 Bft)
26.10.2013 03:26 14,8 C 13,3 C 99 % 1010,9 hPa 0,0 l/m 0 min 0 min 0,0 UV-I 0 W/m 0,0 km/h (0 Bft)
26.10.2013 03:28 14,8 C 13,3 C 99 % 1010,9 hPa 0,0 l/m 0 min 0 min 0,0 UV-I 0 W/m 0,0 km/h (0 Bft)
26.10.2013 03:30 14,8 C 13,3 C 99 % 1010,9 hPa 0,0 l/m 0 min 0 min 0,0 UV-I 0 W/m 0,0 km/h (0 Bft)
26.10.2013 03:32 14,8 C 13,3 C 99 % 1011,1 hPa 0,0 l/m 0 min 0 min 0,0 UV-I 0 W/m 0,0 km/h (0 Bft)
26.10.2013 03:34 14,8 C 13,3 C 99 % 1011,1 hPa 0,0 l/m 0 min 0 min 0,0 UV-I 0 W/m 0,0 km/h (0 Bft)
26.10.2013 03:36 14,8 C 13,3 C 99 % 1011,1 hPa 0,0 l/m 0 min 0 min 0,0 UV-I 0 W/m 0,0 km/h (0 Bft)
26.10.2013 03:38 14,8 C 13,3 C 99 % 1011,1 hPa 0,0 l/m 0 min 0 min 0,0 UV-I 0 W/m 0,0 km/h (0 Bft)
26.10.2013 03:40 14,7 C 13,3 C 99 % 1011,1 hPa 0,0 l/m 0 min 0 min 0,0 UV-I 0 W/m 0,0 km/h (0 Bft)
26.10.2013 03:42 14,7 C 13,3 C 99 % 1011,0 hPa 0,0 l/m 0 min 0 min 0,0 UV-I 0 W/m 0,0 km/h (0 Bft)
26.10.2013 03:44 14,7 C 12,8 C 99 % 1011,0 hPa 0,0 l/m 0 min 0 min 0,0 UV-I 0 W/m 0,0 km/h (0 Bft)
26.10.2013 03:46 14,6 C 12,8 C 99 % 1011,0 hPa 0,0 l/m 0 min 0 min 0,0 UV-I 0 W/m 2,6 km/h (1 Bft)
26.10.2013 03:48 14,6 C 12,8 C 99 % 1011,0 hPa 0,0 l/m 0 min 0 min 0,0 UV-I 0 W/m 0,0 km/h (0 Bft)
26.10.2013 03:50 14,6 C 12,8 C 99 % 1011,0 hPa 0,0 l/m 0 min 0 min 0,0 UV-I 0 W/m 0,0 km/h (0 Bft)
26.10.2013 03:52 14,6 C 12,8 C 99 % 1010,9 hPa 0,0 l/m 0 min 0 min 0,0 UV-I 0 W/m 0,0 km/h (0 Bft)
26.10.2013 03:54 14,6 C 12,8 C 99 % 1010,9 hPa 0,0 l/m 0 min 0 min 0,0 UV-I 0 W/m 0,0 km/h (0 Bft)
26.10.2013 03:56 14,6 C 12,8 C 99 % 1011,0 hPa 0,0 l/m 0 min 0 min 0,0 UV-I 0 W/m 0,0 km/h (0 Bft)
26.10.2013 03:58 14,6 C 12,8 C 99 % 1011,0 hPa 0,0 l/m 0 min 0 min 0,0 UV-I 0 W/m 0,0 km/h (0 Bft)
26.10.2013 04:00 14,6 C 12,8 C 99 % 1011,0 hPa 0,0 l/m 0 min 0 min 0,0 UV-I 0 W/m 0,0 km/h (0 Bft)
26.10.2013 04:02 14,6 C 12,8 C 99 % 1010,9 hPa 0,0 l/m 0 min 0 min 0,0 UV-I 0 W/m 0,0 km/h (0 Bft)
26.10.2013 04:06 14,6 C 12,8 C 99 % 1011,0 hPa 0,0 l/m 0 min 0 min 0,0 UV-I 0 W/m 0,0 km/h (0 Bft)
26.10.2013 04:08 14,6 C 12,8 C 99 % 1011,0 hPa 0,0 l/m 0 min 0 min 0,0 UV-I 0 W/m 0,0 km/h (0 Bft)
26.10.2013 04:10 14,6 C 12,8 C 99 % 1010,9 hPa 0,0 l/m 0 min 0 min 0,0 UV-I 0 W/m 0,0 km/h (0 Bft)
26.10.2013 04:12 14,6 C 12,8 C 99 % 1010,9 hPa 0,0 l/m 0 min 0 min 0,0 UV-I 0 W/m 0,0 km/h (0 Bft)
26.10.2013 04:17 14,6 C 12,8 C 99 % 1010,8 hPa 0,0 l/m 0 min 0 min 0,0 UV-I 0 W/m 7,7 km/h (2 Bft)
26.10.2013 04:18 14,6 C 13,3 C 99 % 1010,8 hPa 0,0 l/m 0 min 0 min 0,0 UV-I 0 W/m 5,1 km/h (1 Bft)
26.10.2013 04:20 14,6 C 13,3 C 99 % 1010,8 hPa 0,0 l/m 0 min 0 min 0,0 UV-I 0 W/m 5,1 km/h (1 Bft)
26.10.2013 04:22 14,6 C 13,3 C 99 % 1010,8 hPa 0,0 l/m 0 min 0 min 0,0 UV-I 0 W/m 2,6 km/h (1 Bft)
26.10.2013 04:24 14,6 C 12,8 C 99 % 1010,8 hPa 0,0 l/m 0 min 0 min 0,0 UV-I 0 W/m 5,1 km/h (1 Bft)
26.10.2013 04:26 14,6 C 12,8 C 99 % 1010,7 hPa 0,0 l/m 0 min 0 min 0,0 UV-I 0 W/m 2,6 km/h (1 Bft)
26.10.2013 04:28 14,5 C 12,8 C 99 % 1010,6 hPa 0,0 l/m 0 min 0 min 0,0 UV-I 0 W/m 0,0 km/h (0 Bft)
26.10.2013 04:30 14,5 C 12,8 C 99 % 1010,7 hPa 0,0 l/m 0 min 0 min 0,0 UV-I 0 W/m 0,0 km/h (0 Bft)
26.10.2013 04:32 14,5 C 12,8 C 99 % 1010,7 hPa 0,0 l/m 0 min 0 min 0,0 UV-I 0 W/m 0,0 km/h (0 Bft)
26.10.2013 04:34 14,4 C 12,8 C 99 % 1010,6 hPa 0,0 l/m 0 min 0 min 0,0 UV-I 0 W/m 0,0 km/h (0 Bft)
26.10.2013 04:36 14,4 C 12,8 C 99 % 1010,7 hPa 0,0 l/m 0 min 0 min 0,0 UV-I 0 W/m 5,1 km/h (1 Bft)
26.10.2013 04:38 14,4 C 12,8 C 99 % 1010,7 hPa 0,0 l/m 0 min 0 min 0,0 UV-I 0 W/m 0,0 km/h (0 Bft)
26.10.2013 04:40 14,4 C 12,8 C 99 % 1010,6 hPa 0,0 l/m 0 min 0 min 0,0 UV-I 0 W/m 0,0 km/h (0 Bft)
26.10.2013 04:42 14,4 C 12,8 C 99 % 1010,6 hPa 0,0 l/m 0 min 0 min 0,0 UV-I 0 W/m 0,0 km/h (0 Bft)
26.10.2013 04:44 14,4 C 12,8 C 99 % 1010,7 hPa 0,0 l/m 0 min 0 min 0,0 UV-I 0 W/m 0,0 km/h (0 Bft)
26.10.2013 04:46 14,4 C 12,8 C 99 % 1010,7 hPa 0,0 l/m 0 min 0 min 0,0 UV-I 0 W/m 2,6 km/h (1 Bft)
26.10.2013 04:48 14,4 C 12,8 C 99 % 1010,7 hPa 0,2 l/m 0 min 0 min 0,0 UV-I 0 W/m 2,6 km/h (1 Bft)
26.10.2013 04:50 14,4 C 12,8 C 99 % 1010,7 hPa 0,0 l/m 0 min 0 min 0,0 UV-I 0 W/m 0,0 km/h (0 Bft)
26.10.2013 04:52 14,3 C 12,8 C 99 % 1010,7 hPa 0,0 l/m 0 min 0 min 0,0 UV-I 0 W/m 0,0 km/h (0 Bft)
26.10.2013 04:54 14,3 C 12,8 C 99 % 1010,8 hPa 0,0 l/m 0 min 0 min 0,0 UV-I 0 W/m 0,0 km/h (0 Bft)
26.10.2013 04:56 14,3 C 12,8 C 99 % 1010,8 hPa 0,0 l/m 0 min 0 min 0,0 UV-I 0 W/m 0,0 km/h (0 Bft)
26.10.2013 04:58 14,3 C 12,8 C 99 % 1010,8 hPa 0,0 l/m 0 min 0 min 0,0 UV-I 0 W/m 0,0 km/h (0 Bft)
26.10.2013 05:00 14,2 C 12,8 C 99 % 1010,8 hPa 0,0 l/m 0 min 0 min 0,0 UV-I 0 W/m 0,0 km/h (0 Bft)
26.10.2013 05:02 14,2 C 12,8 C 99 % 1010,8 hPa 0,0 l/m 0 min 0 min 0,0 UV-I 0 W/m 2,6 km/h (1 Bft)
26.10.2013 05:06 14,3 C 12,8 C 99 % 1010,8 hPa 0,0 l/m 0 min 0 min 0,0 UV-I 0 W/m 7,7 km/h (2 Bft)
26.10.2013 05:08 14,3 C 12,8 C 99 % 1010,8 hPa 0,0 l/m 0 min 0 min 0,0 UV-I 0 W/m 0,0 km/h (0 Bft)
26.10.2013 05:10 14,2 C 12,8 C 99 % 1010,8 hPa 0,0 l/m 0 min 0 min 0,0 UV-I 0 W/m 0,0 km/h (0 Bft)
26.10.2013 05:12 14,3 C 12,8 C 99 % 1010,8 hPa 0,0 l/m 0 min 0 min 0,0 UV-I 0 W/m 0,0 km/h (0 Bft)
26.10.2013 05:14 14,2 C 12,8 C 99 % 1010,8 hPa 0,0 l/m 0 min 0 min 0,0 UV-I 0 W/m 2,6 km/h (1 Bft)
26.10.2013 05:16 14,2 C 12,8 C 99 % 1010,8 hPa 0,0 l/m 0 min 0 min 0,0 UV-I 0 W/m 0,0 km/h (0 Bft)
26.10.2013 05:18 14,2 C 12,8 C 99 % 1010,7 hPa 0,0 l/m 0 min 0 min 0,0 UV-I 0 W/m 5,1 km/h (1 Bft)
26.10.2013 05:20 14,2 C 12,8 C 99 % 1010,8 hPa 0,0 l/m 0 min 0 min 0,0 UV-I 0 W/m 0,0 km/h (0 Bft)
26.10.2013 05:22 14,2 C 12,8 C 99 % 1010,7 hPa 0,0 l/m 0 min 0 min 0,0 UV-I 0 W/m 0,0 km/h (0 Bft)
26.10.2013 05:24 14,2 C 12,8 C 99 % 1010,8 hPa 0,0 l/m 0 min 0 min 0,0 UV-I 0 W/m 7,7 km/h (2 Bft)
26.10.2013 05:26 14,2 C 12,8 C 99 % 1010,8 hPa 0,0 l/m 0 min 0 min 0,0 UV-I 0 W/m 0,0 km/h (0 Bft)
26.10.2013 05:28 14,2 C 12,8 C 99 % 1010,8 hPa 0,0 l/m 0 min 0 min 0,0 UV-I 0 W/m 0,0 km/h (0 Bft)
26.10.2013 05:30 14,2 C 12,8 C 99 % 1010,8 hPa 0,0 l/m 0 min 0 min 0,0 UV-I 0 W/m 2,6 km/h (1 Bft)
26.10.2013 05:32 14,2 C 12,8 C 99 % 1010,9 hPa 0,0 l/m 0 min 0 min 0,0 UV-I 0 W/m 2,6 km/h (1 Bft)
26.10.2013 05:34 14,2 C 12,8 C 99 % 1010,8 hPa 0,0 l/m 0 min 0 min 0,0 UV-I 0 W/m 0,0 km/h (0 Bft)
26.10.2013 05:36 14,2 C 12,8 C 99 % 1010,8 hPa 0,0 l/m 0 min 0 min 0,0 UV-I 0 W/m 0,0 km/h (0 Bft)
26.10.2013 05:38 14,2 C 12,8 C 99 % 1010,8 hPa 0,0 l/m 0 min 0 min 0,0 UV-I 0 W/m 0,0 km/h (0 Bft)
26.10.2013 05:40 14,2 C 12,8 C 99 % 1010,8 hPa 0,0 l/m 0 min 0 min 0,0 UV-I 0 W/m 0,0 km/h (0 Bft)
26.10.2013 05:42 14,2 C 12,8 C 99 % 1010,8 hPa 0,0 l/m 0 min 0 min 0,0 UV-I 0 W/m 0,0 km/h (0 Bft)
26.10.2013 05:44 14,2 C 12,8 C 99 % 1010,7 hPa 0,0 l/m 0 min 0 min 0,0 UV-I 0 W/m 0,0 km/h (0 Bft)
26.10.2013 05:46 14,2 C 12,8 C 99 % 1010,6 hPa 0,0 l/m 0 min 0 min 0,0 UV-I 0 W/m 2,6 km/h (1 Bft)
26.10.2013 05:48 14,2 C 12,8 C 99 % 1010,7 hPa 0,0 l/m 0 min 0 min 0,0 UV-I 0 W/m 0,0 km/h (0 Bft)
26.10.2013 05:50 14,2 C 12,8 C 99 % 1010,7 hPa 0,0 l/m 0 min 0 min 0,0 UV-I 0 W/m 0,0 km/h (0 Bft)
26.10.2013 05:52 14,2 C 12,8 C 99 % 1010,7 hPa 0,0 l/m 0 min 0 min 0,0 UV-I 0 W/m 0,0 km/h (0 Bft)
26.10.2013 05:54 14,2 C 12,2 C 99 % 1010,6 hPa 0,0 l/m 0 min 0 min 0,0 UV-I 0 W/m 0,0 km/h (0 Bft)
26.10.2013 05:56 14,1 C 12,2 C 99 % 1010,7 hPa 0,0 l/m 0 min 0 min 0,0 UV-I 0 W/m 0,0 km/h (0 Bft)
26.10.2013 05:58 14,1 C 12,2 C 99 % 1010,7 hPa 0,0 l/m 0 min 0 min 0,0 UV-I 0 W/m 0,0 km/h (0 Bft)
26.10.2013 06:00 14,1 C 12,2 C 99 % 1010,7 hPa 0,0 l/m 0 min 0 min 0,0 UV-I 0 W/m 0,0 km/h (0 Bft)
26.10.2013 06:02 14,1 C 12,2 C 99 % 1010,6 hPa 0,0 l/m 0 min 0 min 0,0 UV-I 0 W/m 0,0 km/h (0 Bft)
26.10.2013 06:06 14,0 C 12,2 C 99 % 1010,7 hPa 0,0 l/m 0 min 0 min 0,0 UV-I 0 W/m 0,0 km/h (0 Bft)
26.10.2013 06:08 14,0 C 12,2 C 99 % 1010,7 hPa 0,0 l/m 0 min 0 min 0,0 UV-I 0 W/m 0,0 km/h (0 Bft)
26.10.2013 06:10 14,0 C 12,2 C 99 % 1010,7 hPa 0,0 l/m 0 min 0 min 0,0 UV-I 0 W/m 0,0 km/h (0 Bft)
26.10.2013 06:12 13,9 C 12,2 C 99 % 1010,7 hPa 0,0 l/m 0 min 0 min 0,0 UV-I 0 W/m 0,0 km/h (0 Bft)
26.10.2013 06:14 13,9 C 12,2 C 99 % 1010,7 hPa 0,0 l/m 0 min 0 min 0,0 UV-I 0 W/m 0,0 km/h (0 Bft)
26.10.2013 06:16 13,9 C 12,2 C 99 % 1010,7 hPa 0,0 l/m 0 min 0 min 0,0 UV-I 0 W/m 0,0 km/h (0 Bft)
26.10.2013 06:18 13,9 C 12,2 C 99 % 1010,7 hPa 0,0 l/m 0 min 0 min 0,0 UV-I 0 W/m 0,0 km/h (0 Bft)
26.10.2013 06:20 13,9 C 12,2 C 99 % 1010,6 hPa 0,0 l/m 0 min 0 min 0,0 UV-I 0 W/m 2,6 km/h (1 Bft)
26.10.2013 06:22 13,9 C 12,2 C 99 % 1010,6 hPa 0,0 l/m 0 min 0 min 0,0 UV-I 0 W/m 0,0 km/h (0 Bft)
26.10.2013 06:24 13,9 C 12,2 C 99 % 1010,6 hPa 0,0 l/m 0 min 0 min 0,0 UV-I 0 W/m 0,0 km/h (0 Bft)
26.10.2013 06:26 13,9 C 12,2 C 99 % 1010,6 hPa 0,0 l/m 0 min 0 min 0,0 UV-I 0 W/m 2,6 km/h (1 Bft)
26.10.2013 06:28 13,9 C 12,2 C 99 % 1010,6 hPa 0,0 l/m 0 min 0 min 0,0 UV-I 0 W/m 0,0 km/h (0 Bft)
26.10.2013 06:30 13,9 C 12,2 C 99 % 1010,7 hPa 0,0 l/m 0 min 0 min 0,0 UV-I 0 W/m 0,0 km/h (0 Bft)
26.10.2013 06:32 13,9 C 12,2 C 99 % 1010,7 hPa 0,0 l/m 0 min 0 min 0,0 UV-I 0 W/m 0,0 km/h (0 Bft)
26.10.2013 06:34 13,9 C 12,2 C 99 % 1010,6 hPa 0,0 l/m 0 min 0 min 0,0 UV-I 0 W/m 0,0 km/h (0 Bft)
26.10.2013 06:36 13,9 C 12,2 C 99 % 1010,7 hPa 0,0 l/m 0 min 0 min 0,0 UV-I 0 W/m 0,0 km/h (0 Bft)
26.10.2013 06:38 13,9 C 12,2 C 99 % 1010,7 hPa 0,0 l/m 0 min 0 min 0,0 UV-I 0 W/m 0,0 km/h (0 Bft)
26.10.2013 06:40 13,9 C 12,2 C 99 % 1010,7 hPa 0,0 l/m 0 min 0 min 0,0 UV-I 0 W/m 0,0 km/h (0 Bft)
26.10.2013 06:42 13,8 C 12,2 C 99 % 1010,7 hPa 0,0 l/m 0 min 0 min 0,0 UV-I 0 W/m 0,0 km/h (0 Bft)
26.10.2013 06:44 13,9 C 12,2 C 99 % 1010,7 hPa 0,0 l/m 0 min 0 min 0,0 UV-I 0 W/m 0,0 km/h (0 Bft)
26.10.2013 06:46 13,9 C 12,2 C 99 % 1010,6 hPa 0,0 l/m 0 min 0 min 0,0 UV-I 0 W/m 0,0 km/h (0 Bft)
26.10.2013 06:48 13,8 C 12,2 C 99 % 1010,6 hPa 0,0 l/m 0 min 0 min 0,0 UV-I 0 W/m 0,0 km/h (0 Bft)
26.10.2013 06:50 13,8 C 12,2 C 99 % 1010,7 hPa 0,0 l/m 0 min 0 min 0,0 UV-I 0 W/m 0,0 km/h (0 Bft)
26.10.2013 06:52 13,8 C 12,2 C 99 % 1010,7 hPa 0,0 l/m 0 min 0 min 0,0 UV-I 0 W/m 0,0 km/h (0 Bft)
26.10.2013 06:54 13,8 C 12,2 C 99 % 1010,6 hPa 0,0 l/m 0 min 0 min 0,0 UV-I 0 W/m 0,0 km/h (0 Bft)
26.10.2013 06:56 13,8 C 12,2 C 99 % 1010,5 hPa 0,0 l/m 0 min 0 min 0,0 UV-I 0 W/m 0,0 km/h (0 Bft)
26.10.2013 06:58 13,8 C 12,2 C 99 % 1010,5 hPa 0,0 l/m 0 min 0 min 0,0 UV-I 0 W/m 0,0 km/h (0 Bft)
26.10.2013 07:00 13,8 C 12,2 C 99 % 1010,5 hPa 0,0 l/m 0 min 0 min 0,0 UV-I 0 W/m 0,0 km/h (0 Bft)
26.10.2013 07:02 13,8 C 12,2 C 99 % 1010,5 hPa 0,0 l/m 0 min 0 min 0,0 UV-I 0 W/m 0,0 km/h (0 Bft)
26.10.2013 07:06 13,8 C 12,2 C 99 % 1010,6 hPa 0,0 l/m 0 min 0 min 0,0 UV-I 0 W/m 0,0 km/h (0 Bft)
26.10.2013 07:08 13,8 C 12,2 C 99 % 1010,6 hPa 0,0 l/m 0 min 0 min 0,0 UV-I 0 W/m 0,0 km/h (0 Bft)
26.10.2013 07:10 13,8 C 12,2 C 99 % 1010,6 hPa 0,0 l/m 0 min 0 min 0,0 UV-I 0 W/m 0,0 km/h (0 Bft)
26.10.2013 07:12 13,7 C 12,2 C 99 % 1010,7 hPa 0,0 l/m 0 min 0 min 0,0 UV-I 0 W/m 0,0 km/h (0 Bft)
26.10.2013 07:14 13,7 C 12,2 C 99 % 1010,7 hPa 0,0 l/m 0 min 0 min 0,0 UV-I 0 W/m 0,0 km/h (0 Bft)
26.10.2013 07:16 13,7 C 12,2 C 99 % 1010,7 hPa 0,0 l/m 0 min 0 min 0,0 UV-I 0 W/m 0,0 km/h (0 Bft)
26.10.2013 07:18 13,7 C 12,2 C 99 % 1010,6 hPa 0,0 l/m 0 min 0 min 0,0 UV-I 0 W/m 0,0 km/h (0 Bft)
26.10.2013 07:20 13,7 C 12,2 C 99 % 1010,7 hPa 0,0 l/m 0 min 0 min 0,0 UV-I 0 W/m 0,0 km/h (0 Bft)
26.10.2013 07:22 13,7 C 12,2 C 99 % 1010,7 hPa 0,0 l/m 0 min 0 min 0,0 UV-I 0 W/m 0,0 km/h (0 Bft)
26.10.2013 07:24 13,7 C 12,2 C 99 % 1010,7 hPa 0,0 l/m 0 min 0 min 0,0 UV-I 0 W/m 0,0 km/h (0 Bft)
26.10.2013 07:26 13,7 C 12,2 C 99 % 1010,7 hPa 0,0 l/m 0 min 0 min 0,0 UV-I 0 W/m 0,0 km/h (0 Bft)
26.10.2013 07:28 13,7 C 12,2 C 99 % 1010,7 hPa 0,0 l/m 0 min 0 min 0,0 UV-I 0 W/m 0,0 km/h (0 Bft)
26.10.2013 07:30 13,7 C 12,2 C 99 % 1010,7 hPa 0,0 l/m 0 min 0 min 0,0 UV-I 0 W/m 0,0 km/h (0 Bft)
26.10.2013 07:32 13,7 C 12,2 C 99 % 1010,7 hPa 0,0 l/m 0 min 0 min 0,0 UV-I 0 W/m 0,0 km/h (0 Bft)
26.10.2013 07:34 13,7 C 12,2 C 99 % 1010,7 hPa 0,0 l/m 0 min 0 min 0,0 UV-I 0 W/m 0,0 km/h (0 Bft)
26.10.2013 07:36 13,8 C 12,2 C 99 % 1010,8 hPa 0,0 l/m 0 min 0 min 0,0 UV-I 0 W/m 0,0 km/h (0 Bft)
26.10.2013 07:38 13,8 C 12,2 C 99 % 1010,8 hPa 0,0 l/m 0 min 0 min 0,0 UV-I 0 W/m 0,0 km/h (0 Bft)
26.10.2013 07:40 13,8 C 12,2 C 99 % 1010,8 hPa 0,0 l/m 0 min 0 min 0,0 UV-I 0 W/m 0,0 km/h (0 Bft)
26.10.2013 07:42 13,8 C 12,2 C 99 % 1010,8 hPa 0,0 l/m 0 min 0 min 0,0 UV-I 0 W/m 0,0 km/h (0 Bft)
26.10.2013 07:44 13,8 C 12,2 C 99 % 1010,8 hPa 0,0 l/m 0 min 0 min 0,0 UV-I 0 W/m 0,0 km/h (0 Bft)
26.10.2013 07:46 13,8 C 12,2 C 99 % 1010,8 hPa 0,0 l/m 0 min 0 min 0,0 UV-I 0 W/m 0,0 km/h (0 Bft)
26.10.2013 07:48 13,8 C 12,2 C 99 % 1010,8 hPa 0,0 l/m 0 min 0 min 0,0 UV-I 0 W/m 0,0 km/h (0 Bft)
26.10.2013 07:50 13,8 C 12,2 C 99 % 1010,9 hPa 0,0 l/m 0 min 0 min 0,0 UV-I 0 W/m 0,0 km/h (0 Bft)
26.10.2013 07:52 13,8 C 12,2 C 99 % 1010,9 hPa 0,0 l/m 0 min 0 min 0,0 UV-I 0 W/m 0,0 km/h (0 Bft)
26.10.2013 07:54 13,8 C 12,2 C 99 % 1010,8 hPa 0,0 l/m 0 min 0 min 0,0 UV-I 0 W/m 0,0 km/h (0 Bft)
26.10.2013 07:56 13,8 C 12,2 C 99 % 1010,9 hPa 0,0 l/m 0 min 0 min 0,0 UV-I 0 W/m 0,0 km/h (0 Bft)
26.10.2013 07:58 13,8 C 12,2 C 99 % 1010,9 hPa 0,0 l/m 0 min 0 min 0,0 UV-I 0 W/m 0,0 km/h (0 Bft)
26.10.2013 08:00 13,8 C 12,2 C 99 % 1010,9 hPa 0,0 l/m 0 min 0 min 0,0 UV-I 0 W/m 0,0 km/h (0 Bft)
26.10.2013 08:02 13,8 C 12,2 C 99 % 1011,0 hPa 0,0 l/m 0 min 0 min 0,0 UV-I 0 W/m 0,0 km/h (0 Bft)
26.10.2013 08:06 13,9 C 12,2 C 99 % 1010,9 hPa 0,0 l/m 0 min 0 min 0,0 UV-I 0 W/m 0,0 km/h (0 Bft)
26.10.2013 08:08 13,9 C 12,8 C 99 % 1010,9 hPa 0,0 l/m 0 min 0 min 0,0 UV-I 0 W/m 0,0 km/h (0 Bft)
26.10.2013 08:10 13,9 C 12,8 C 99 % 1011,0 hPa 0,0 l/m 0 min 0 min 0,0 UV-I 0 W/m 0,0 km/h (0 Bft)
26.10.2013 08:12 14,0 C 12,8 C 99 % 1011,1 hPa 0,0 l/m 0 min 0 min 0,0 UV-I 0 W/m 0,0 km/h (0 Bft)
26.10.2013 08:14 14,0 C 12,8 C 99 % 1011,1 hPa 0,0 l/m 0 min 0 min 0,0 UV-I 0 W/m 0,0 km/h (0 Bft)
26.10.2013 08:16 14,1 C 12,8 C 99 % 1011,0 hPa 0,0 l/m 0 min 0 min 0,0 UV-I 0 W/m 0,0 km/h (0 Bft)
26.10.2013 08:18 14,2 C 12,8 C 99 % 1011,1 hPa 0,0 l/m 0 min 0 min 0,0 UV-I 0 W/m 0,0 km/h (0 Bft)
26.10.2013 08:20 14,2 C 12,8 C 99 % 1011,2 hPa 0,0 l/m 0 min 0 min 0,0 UV-I 0 W/m 0,0 km/h (0 Bft)
26.10.2013 08:22 14,2 C 12,8 C 99 % 1011,2 hPa 0,0 l/m 0 min 0 min 0,0 UV-I 0 W/m 0,0 km/h (0 Bft)
26.10.2013 08:24 14,2 C 12,8 C 99 % 1011,3 hPa 0,0 l/m 0 min 0 min 0,0 UV-I 0 W/m 0,0 km/h (0 Bft)
26.10.2013 08:26 14,2 C 12,8 C 99 % 1011,3 hPa 0,0 l/m 0 min 0 min 0,0 UV-I 0 W/m 5,1 km/h (1 Bft)
26.10.2013 08:28 14,2 C 12,8 C 99 % 1011,5 hPa 0,0 l/m 0 min 0 min 0,0 UV-I 0 W/m 0,0 km/h (0 Bft)
26.10.2013 08:30 14,3 C 12,8 C 99 % 1011,5 hPa 0,0 l/m 0 min 0 min 0,0 UV-I 0 W/m 0,0 km/h (0 Bft)
26.10.2013 08:32 14,4 C 12,8 C 99 % 1011,5 hPa 0,0 l/m 0 min 0 min 0,0 UV-I 0 W/m 2,6 km/h (1 Bft)
26.10.2013 08:34 14,4 C 12,8 C 99 % 1011,5 hPa 0,0 l/m 0 min 0 min 0,0 UV-I 0 W/m 7,7 km/h (2 Bft)
26.10.2013 08:36 14,5 C 12,8 C 99 % 1011,5 hPa 0,0 l/m 0 min 0 min 0,0 UV-I 0 W/m 0,0 km/h (0 Bft)
26.10.2013 08:38 14,6 C 12,8 C 99 % 1011,5 hPa 0,0 l/m 0 min 0 min 0,0 UV-I 0 W/m 0,0 km/h (0 Bft)
26.10.2013 08:40 14,6 C 12,8 C 99 % 1011,5 hPa 0,0 l/m 0 min 0 min 0,0 UV-I 5 W/m 2,6 km/h (1 Bft)
26.10.2013 08:42 14,6 C 13,3 C 99 % 1011,5 hPa 0,0 l/m 0 min 0 min 0,0 UV-I 5 W/m 0,0 km/h (0 Bft)
26.10.2013 08:44 14,6 C 13,3 C 99 % 1011,5 hPa 0,0 l/m 0 min 0 min 0,0 UV-I 5 W/m 5,1 km/h (1 Bft)
26.10.2013 08:46 14,7 C 13,3 C 99 % 1011,5 hPa 0,0 l/m 0 min 0 min 0,0 UV-I 7 W/m 5,1 km/h (1 Bft)
26.10.2013 08:48 14,7 C 13,3 C 99 % 1011,5 hPa 0,0 l/m 0 min 0 min 0,0 UV-I 7 W/m 0,0 km/h (0 Bft)
26.10.2013 08:50 14,7 C 13,3 C 99 % 1011,5 hPa 0,0 l/m 0 min 0 min 0,0 UV-I 7 W/m 2,6 km/h (1 Bft)
26.10.2013 08:52 14,7 C 13,3 C 99 % 1011,5 hPa 0,0 l/m 0 min 0 min 0,0 UV-I 9 W/m 0,0 km/h (0 Bft)
26.10.2013 08:54 14,7 C 13,3 C 99 % 1011,4 hPa 0,0 l/m 0 min 0 min 0,0 UV-I 11 W/m 0,0 km/h (0 Bft)
26.10.2013 08:56 14,7 C 13,3 C 99 % 1011,6 hPa 0,0 l/m 0 min 0 min 0,0 UV-I 14 W/m 2,6 km/h (1 Bft)
26.10.2013 08:58 14,7 C 13,3 C 99 % 1011,5 hPa 0,0 l/m 0 min 0 min 0,0 UV-I 16 W/m 5,1 km/h (1 Bft)
26.10.2013 09:00 14,8 C 13,3 C 99 % 1011,5 hPa 0,0 l/m 0 min 0 min 0,0 UV-I 16 W/m 2,6 km/h (1 Bft)
26.10.2013 09:02 14,8 C 13,3 C 99 % 1011,5 hPa 0,0 l/m 0 min 0 min 0,0 UV-I 18 W/m 0,0 km/h (0 Bft)
26.10.2013 09:06 14,8 C 13,3 C 99 % 1011,5 hPa 0,0 l/m 0 min 0 min 0,0 UV-I 21 W/m 0,0 km/h (0 Bft)
26.10.2013 09:08 14,8 C 13,3 C 99 % 1011,5 hPa 0,0 l/m 0 min 0 min 0,0 UV-I 23 W/m 0,0 km/h (0 Bft)
26.10.2013 09:10 14,8 C 13,3 C 99 % 1011,5 hPa 0,0 l/m 0 min 0 min 0,0 UV-I 23 W/m 5,1 km/h (1 Bft)
26.10.2013 09:12 14,8 C 13,3 C 99 % 1011,4 hPa 0,0 l/m 0 min 0 min 0,0 UV-I 28 W/m 10,3 km/h (2 Bft)
26.10.2013 09:14 14,8 C 13,3 C 99 % 1011,3 hPa 0,0 l/m 0 min 0 min 0,0 UV-I 33 W/m 0,0 km/h (0 Bft)
26.10.2013 09:16 14,8 C 13,3 C 99 % 1011,2 hPa 0,0 l/m 0 min 0 min 0,0 UV-I 37 W/m 0,0 km/h (0 Bft)
26.10.2013 09:18 14,8 C 13,3 C 99 % 1011,3 hPa 0,0 l/m 0 min 0 min 0,0 UV-I 37 W/m 2,6 km/h (1 Bft)
26.10.2013 09:20 14,8 C 13,3 C 99 % 1011,4 hPa 0,0 l/m 0 min 0 min 0,0 UV-I 33 W/m 0,0 km/h (0 Bft)
26.10.2013 09:22 14,8 C 13,3 C 99 % 1011,4 hPa 0,0 l/m 0 min 0 min 0,0 UV-I 32 W/m 0,0 km/h (0 Bft)
26.10.2013 09:24 14,8 C 13,3 C 99 % 1011,4 hPa 0,0 l/m 0 min 0 min 0,0 UV-I 25 W/m 0,0 km/h (0 Bft)
26.10.2013 09:26 14,8 C 13,3 C 99 % 1011,5 hPa 0,0 l/m 0 min 0 min 0,0 UV-I 21 W/m 0,0 km/h (0 Bft)
26.10.2013 09:28 14,7 C 13,3 C 99 % 1011,5 hPa 0,0 l/m 0 min 0 min 0,0 UV-I 21 W/m 0,0 km/h (0 Bft)
26.10.2013 09:30 14,7 C 13,3 C 99 % 1011,6 hPa 0,0 l/m 0 min 0 min 0,0 UV-I 19 W/m 0,0 km/h (0 Bft)
26.10.2013 09:32 14,7 C 13,3 C 99 % 1011,6 hPa 0,0 l/m 0 min 0 min 0,0 UV-I 21 W/m 0,0 km/h (0 Bft)
26.10.2013 09:34 14,7 C 13,3 C 99 % 1011,6 hPa 0,0 l/m 0 min 0 min 0,0 UV-I 18 W/m 0,0 km/h (0 Bft)
26.10.2013 09:36 14,7 C 13,3 C 99 % 1011,8 hPa 0,0 l/m 0 min 0 min 0,0 UV-I 14 W/m 0,0 km/h (0 Bft)
26.10.2013 09:38 14,7 C 13,3 C 99 % 1011,8 hPa 0,0 l/m 0 min 0 min 0,0 UV-I 14 W/m 0,0 km/h (0 Bft)
26.10.2013 09:40 14,7 C 13,3 C 99 % 1011,7 hPa 0,0 l/m 0 min 0 min 0,0 UV-I 19 W/m 0,0 km/h (0 Bft)
26.10.2013 09:42 14,7 C 13,3 C 99 % 1011,6 hPa 0,0 l/m 0 min 0 min 0,0 UV-I 40 W/m 0,0 km/h (0 Bft)
26.10.2013 09:44 14,7 C 13,3 C 99 % 1011,7 hPa 0,0 l/m 0 min 0 min 0,0 UV-I 47 W/m 0,0 km/h (0 Bft)
26.10.2013 09:46 14,7 C 13,3 C 99 % 1011,7 hPa 0,0 l/m 0 min 0 min 0,0 UV-I 54 W/m 0,0 km/h (0 Bft)
26.10.2013 09:48 14,8 C 13,3 C 99 % 1011,8 hPa 0,0 l/m 0 min 0 min 0,0 UV-I 37 W/m 0,0 km/h (0 Bft)
26.10.2013 09:50 14,8 C 13,3 C 99 % 1011,8 hPa 0,0 l/m 0 min 0 min 0,0 UV-I 47 W/m 0,0 km/h (0 Bft)
26.10.2013 09:52 14,8 C 13,3 C 99 % 1011,8 hPa 0,0 l/m 0 min 0 min 0,0 UV-I 44 W/m 0,0 km/h (0 Bft)
26.10.2013 09:54 14,8 C 13,3 C 99 % 1011,9 hPa 0,0 l/m 0 min 0 min 0,0 UV-I 42 W/m 0,0 km/h (0 Bft)
26.10.2013 09:56 14,9 C 13,9 C 99 % 1011,8 hPa 0,0 l/m 0 min 0 min 0,0 UV-I 44 W/m 0,0 km/h (0 Bft)
26.10.2013 09:58 14,9 C 13,9 C 99 % 1011,8 hPa 0,0 l/m 0 min 0 min 0,0 UV-I 35 W/m 0,0 km/h (0 Bft)
26.10.2013 10:00 14,9 C 13,3 C 99 % 1011,9 hPa 0,0 l/m 0 min 0 min 0,0 UV-I 44 W/m 0,0 km/h (0 Bft)
26.10.2013 10:02 14,9 C 13,9 C 99 % 1011,9 hPa 0,0 l/m 0 min 0 min 0,0 UV-I 53 W/m 0,0 km/h (0 Bft)
26.10.2013 10:06 14,9 C 13,9 C 99 % 1011,8 hPa 0,0 l/m 0 min 0 min 0,0 UV-I 51 W/m 0,0 km/h (0 Bft)
26.10.2013 10:08 14,9 C 13,9 C 99 % 1011,8 hPa 0,0 l/m 0 min 0 min 0,0 UV-I 47 W/m 0,0 km/h (0 Bft)
26.10.2013 10:10 15,0 C 13,9 C 99 % 1011,8 hPa 0,0 l/m 0 min 0 min 0,0 UV-I 49 W/m 0,0 km/h (0 Bft)
26.10.2013 10:12 15,0 C 13,9 C 99 % 1011,7 hPa 0,0 l/m 0 min 0 min 0,0 UV-I 56 W/m 7,7 km/h (2 Bft)
26.10.2013 10:14 15,0 C 13,9 C 99 % 1011,9 hPa 0,0 l/m 0 min 0 min 0,0 UV-I 56 W/m 7,7 km/h (2 Bft)
26.10.2013 10:16 15,1 C 13,9 C 99 % 1012,0 hPa 0,0 l/m 0 min 0 min 0,0 UV-I 58 W/m 2,6 km/h (1 Bft)
26.10.2013 10:18 15,1 C 13,9 C 99 % 1011,9 hPa 0,0 l/m 0 min 0 min 0,0 UV-I 83 W/m 7,7 km/h (2 Bft)
26.10.2013 10:20 15,1 C 13,9 C 99 % 1011,8 hPa 0,0 l/m 0 min 0 min 0,0 UV-I 90 W/m 5,1 km/h (1 Bft)
26.10.2013 10:22 15,2 C 13,9 C 99 % 1011,8 hPa 0,0 l/m 0 min 0 min 0,0 UV-I 79 W/m 7,7 km/h (2 Bft)
26.10.2013 10:24 15,2 C 13,9 C 99 % 1011,7 hPa 0,0 l/m 0 min 0 min 0,0 UV-I 83 W/m 0,0 km/h (0 Bft)
26.10.2013 10:26 15,3 C 13,9 C 99 % 1011,8 hPa 0,0 l/m 0 min 0 min 0,0 UV-I 97 W/m 2,6 km/h (1 Bft)
26.10.2013 10:28 15,3 C 13,9 C 99 % 1011,9 hPa 0,0 l/m 0 min 0 min 0,0 UV-I 107 W/m 7,7 km/h (2 Bft)
26.10.2013 10:30 15,4 C 13,9 C 99 % 1011,9 hPa 0,0 l/m 0 min 0 min 0,0 UV-I 84 W/m 7,7 km/h (2 Bft)
26.10.2013 10:32 15,4 C 14,4 C 99 % 1012,0 hPa 0,0 l/m 0 min 0 min 0,0 UV-I 105 W/m 0,0 km/h (0 Bft)
26.10.2013 10:34 15,4 C 14,4 C 99 % 1011,8 hPa 0,0 l/m 0 min 0 min 0,0 UV-I 95 W/m 2,6 km/h (1 Bft)
26.10.2013 10:36 15,5 C 14,4 C 98 % 1011,7 hPa 0,0 l/m 0 min 0 min 0,0 UV-I 95 W/m 2,6 km/h (1 Bft)
26.10.2013 10:38 15,6 C 14,4 C 98 % 1011,7 hPa 0,0 l/m 0 min 0 min 0,0 UV-I 97 W/m 0,0 km/h (0 Bft)
26.10.2013 10:40 15,6 C 14,4 C 98 % 1011,7 hPa 0,0 l/m 0 min 0 min 0,0 UV-I 130 W/m 2,6 km/h (1 Bft)
26.10.2013 10:42 15,7 C 14,4 C 99 % 1011,6 hPa 0,0 l/m 0 min 0 min 0,0 UV-I 132 W/m 7,7 km/h (2 Bft)
26.10.2013 10:44 15,7 C 14,4 C 98 % 1011,6 hPa 0,0 l/m 0 min 0 min 0,0 UV-I 120 W/m 7,7 km/h (2 Bft)
26.10.2013 10:46 15,8 C 14,4 C 98 % 1011,5 hPa 0,0 l/m 0 min 0 min 0,0 UV-I 149 W/m 0,0 km/h (0 Bft)
26.10.2013 10:48 15,8 C 14,4 C 98 % 1011,5 hPa 0,0 l/m 2 min 0 min 0,0 UV-I 218 W/m 10,3 km/h (2 Bft)
26.10.2013 10:50 15,9 C 14,4 C 98 % 1011,5 hPa 0,0 l/m 2 min 0 min 0,0 UV-I 216 W/m 2,6 km/h (1 Bft)
26.10.2013 10:52 15,9 C 14,4 C 98 % 1011,6 hPa 0,0 l/m 2 min 0 min 0,0 UV-I 204 W/m 2,6 km/h (1 Bft)
26.10.2013 10:54 16,1 C 13,9 C 98 % 1011,6 hPa 0,0 l/m 0 min 0 min 0,0 UV-I 163 W/m 2,6 km/h (1 Bft)
26.10.2013 10:56 16,1 C 13,9 C 98 % 1011,5 hPa 0,0 l/m 0 min 0 min 0,0 UV-I 144 W/m 7,7 km/h (2 Bft)
26.10.2013 10:58 16,2 C 13,9 C 98 % 1011,4 hPa 0,0 l/m 0 min 0 min 0,0 UV-I 155 W/m 7,7 km/h (2 Bft)
26.10.2013 11:00 16,2 C 13,9 C 98 % 1011,4 hPa 0,0 l/m 0 min 0 min 0,0 UV-I 178 W/m 7,7 km/h (2 Bft)
26.10.2013 11:02 16,2 C 13,9 C 98 % 1011,5 hPa 0,0 l/m 2 min 0 min 0,0 UV-I 199 W/m 10,3 km/h (2 Bft)
26.10.2013 11:06 16,3 C 14,4 C 98 % 1011,5 hPa 0,0 l/m 2 min 0 min 0,0 UV-I 225 W/m 15,4 km/h (3 Bft)
26.10.2013 11:08 16,4 C 14,4 C 97 % 1011,5 hPa 0,0 l/m 2 min 0 min 0,0 UV-I 243 W/m 10,3 km/h (2 Bft)
26.10.2013 11:10 16,6 C 14,4 C 97 % 1011,6 hPa 0,0 l/m 2 min 0 min 0,0 UV-I 211 W/m 5,1 km/h (1 Bft)
26.10.2013 11:12 16,6 C 14,4 C 97 % 1011,7 hPa 0,0 l/m 2 min 0 min 0,0 UV-I 244 W/m 0,0 km/h (0 Bft)
26.10.2013 11:14 16,7 C 14,4 C 97 % 1011,6 hPa 0,0 l/m 2 min 0 min 0,0 UV-I 274 W/m 7,7 km/h (2 Bft)
26.10.2013 11:16 16,8 C 14,4 C 97 % 1011,6 hPa 0,0 l/m 2 min 0 min 0,0 UV-I 274 W/m 0,0 km/h (0 Bft)
26.10.2013 11:18 16,9 C 14,4 C 96 % 1011,6 hPa 0,0 l/m 2 min 0 min 0,0 UV-I 311 W/m 7,7 km/h (2 Bft)
26.10.2013 11:20 17,1 C 14,4 C 96 % 1011,6 hPa 0,0 l/m 2 min 0 min 0,0 UV-I 250 W/m 7,7 km/h (2 Bft)
26.10.2013 11:22 17,3 C 15,0 C 96 % 1011,6 hPa 0,0 l/m 2 min 0 min 0,5 UV-I 316 W/m 0,0 km/h (0 Bft)
26.10.2013 11:24 17,4 C 15,0 C 95 % 1011,6 hPa 0,0 l/m 2 min 0 min 0,0 UV-I 279 W/m 2,6 km/h (1 Bft)
26.10.2013 11:26 17,6 C 15,0 C 95 % 1011,6 hPa 0,0 l/m 2 min 0 min 0,5 UV-I 281 W/m 0,0 km/h (0 Bft)
26.10.2013 11:28 17,7 C 15,0 C 94 % 1011,7 hPa 0,0 l/m 2 min 0 min 0,5 UV-I 279 W/m 0,0 km/h (0 Bft)
26.10.2013 11:30 17,7 C 15,0 C 93 % 1011,7 hPa 0,0 l/m 2 min 0 min 0,5 UV-I 281 W/m 2,6 km/h (1 Bft)
26.10.2013 11:32 17,8 C 15,0 C 92 % 1011,7 hPa 0,0 l/m 2 min 0 min 0,0 UV-I 281 W/m 0,0 km/h (0 Bft)
26.10.2013 11:34 17,9 C 15,0 C 92 % 1011,7 hPa 0,0 l/m 2 min 0 min 0,6 UV-I 329 W/m 7,7 km/h (2 Bft)
26.10.2013 11:36 18,1 C 15,0 C 91 % 1011,6 hPa 0,0 l/m 2 min 0 min 0,6 UV-I 302 W/m 7,7 km/h (2 Bft)
26.10.2013 11:38 18,2 C 15,0 C 91 % 1011,6 hPa 0,0 l/m 2 min 0 min 0,6 UV-I 325 W/m 7,7 km/h (2 Bft)
26.10.2013 11:40 18,2 C 15,0 C 90 % 1011,6 hPa 0,0 l/m 2 min 0 min 0,6 UV-I 322 W/m 2,6 km/h (1 Bft)
26.10.2013 11:42 18,3 C 15,0 C 90 % 1011,6 hPa 0,0 l/m 2 min 0 min 0,6 UV-I 322 W/m 2,6 km/h (1 Bft)
26.10.2013 11:44 18,4 C 15,6 C 90 % 1011,5 hPa 0,0 l/m 2 min 0 min 0,6 UV-I 323 W/m 5,1 km/h (1 Bft)
26.10.2013 11:46 18,5 C 15,6 C 89 % 1011,4 hPa 0,0 l/m 2 min 0 min 0,7 UV-I 336 W/m 10,3 km/h (2 Bft)
26.10.2013 11:48 18,6 C 15,6 C 89 % 1011,4 hPa 0,0 l/m 2 min 0 min 0,7 UV-I 341 W/m 5,1 km/h (1 Bft)
26.10.2013 11:50 18,6 C 15,6 C 88 % 1011,5 hPa 0,0 l/m 2 min 0 min 0,7 UV-I 341 W/m 2,6 km/h (1 Bft)
26.10.2013 11:52 18,7 C 15,6 C 88 % 1011,4 hPa 0,0 l/m 2 min 0 min 0,7 UV-I 348 W/m 7,7 km/h (2 Bft)
26.10.2013 11:54 18,7 C 15,6 C 87 % 1011,4 hPa 0,0 l/m 2 min 0 min 0,7 UV-I 318 W/m 0,0 km/h (0 Bft)
26.10.2013 11:56 18,7 C 15,6 C 87 % 1011,4 hPa 0,0 l/m 2 min 0 min 0,7 UV-I 350 W/m 7,7 km/h (2 Bft)
26.10.2013 11:58 18,8 C 15,6 C 87 % 1011,5 hPa 0,0 l/m 2 min 0 min 0,8 UV-I 353 W/m 20,6 km/h (4 Bft)
26.10.2013 12:00 18,8 C 15,6 C 87 % 1011,5 hPa 0,0 l/m 2 min 0 min 0,7 UV-I 316 W/m 18,0 km/h (3 Bft)
26.10.2013 12:02 18,9 C 15,6 C 87 % 1011,4 hPa 0,0 l/m 2 min 0 min 0,7 UV-I 323 W/m 2,6 km/h (1 Bft)
26.10.2013 12:06 18,9 C 16,1 C 87 % 1011,7 hPa 0,0 l/m 2 min 0 min 0,7 UV-I 350 W/m 10,3 km/h (2 Bft)
26.10.2013 12:08 18,9 C 16,1 C 86 % 1011,6 hPa 0,0 l/m 2 min 0 min 0,8 UV-I 341 W/m 12,9 km/h (3 Bft)
26.10.2013 12:10 19,0 C 16,1 C 86 % 1011,6 hPa 0,0 l/m 2 min 0 min 0,8 UV-I 348 W/m 20,6 km/h (4 Bft)
26.10.2013 12:12 19,0 C 16,1 C 85 % 1011,7 hPa 0,0 l/m 2 min 0 min 0,8 UV-I 350 W/m 18,0 km/h (3 Bft)
26.10.2013 12:14 19,1 C 16,1 C 86 % 1011,6 hPa 0,0 l/m 2 min 0 min 0,8 UV-I 348 W/m 12,9 km/h (3 Bft)
26.10.2013 12:16 19,1 C 16,1 C 85 % 1011,6 hPa 0,0 l/m 2 min 0 min 0,8 UV-I 362 W/m 18,0 km/h (3 Bft)
26.10.2013 12:18 19,1 C 16,7 C 85 % 1011,6 hPa 0,0 l/m 2 min 0 min 0,7 UV-I 350 W/m 20,6 km/h (4 Bft)
26.10.2013 12:20 19,0 C 16,1 C 84 % 1011,8 hPa 0,0 l/m 0 min 0 min 0,7 UV-I 232 W/m 18,0 km/h (3 Bft)
26.10.2013 12:22 19,0 C 16,1 C 84 % 1011,6 hPa 0,0 l/m 2 min 0 min 0,6 UV-I 276 W/m 12,9 km/h (3 Bft)
26.10.2013 12:24 18,9 C 16,1 C 85 % 1011,7 hPa 0,0 l/m 2 min 0 min 0,6 UV-I 292 W/m 7,7 km/h (2 Bft)
26.10.2013 12:26 19,0 C 16,1 C 85 % 1011,6 hPa 0,0 l/m 0 min 0 min 0,5 UV-I 193 W/m 12,9 km/h (3 Bft)
26.10.2013 12:28 19,0 C 16,7 C 85 % 1011,6 hPa 0,0 l/m 0 min 0 min 0,6 UV-I 185 W/m 10,3 km/h (2 Bft)
26.10.2013 12:30 18,9 C 16,7 C 85 % 1011,6 hPa 0,0 l/m 0 min 0 min 0,6 UV-I 179 W/m 15,4 km/h (3 Bft)
26.10.2013 12:32 18,9 C 16,7 C 85 % 1011,6 hPa 0,0 l/m 0 min 0 min 0,6 UV-I 178 W/m 12,9 km/h (3 Bft)
26.10.2013 12:34 18,9 C 16,1 C 84 % 1011,4 hPa 0,0 l/m 2 min 0 min 0,5 UV-I 276 W/m 5,1 km/h (1 Bft)
26.10.2013 12:36 18,9 C 16,1 C 84 % 1011,4 hPa 0,0 l/m 2 min 0 min 0,5 UV-I 278 W/m 15,4 km/h (3 Bft)
26.10.2013 12:38 19,0 C 16,7 C 84 % 1011,3 hPa 0,0 l/m 2 min 0 min 0,5 UV-I 279 W/m 15,4 km/h (3 Bft)
26.10.2013 12:40 19,0 C 16,7 C 84 % 1011,2 hPa 0,0 l/m 2 min 0 min 0,5 UV-I 279 W/m 20,6 km/h (4 Bft)
26.10.2013 12:42 19,0 C 16,7 C 84 % 1011,1 hPa 0,0 l/m 2 min 0 min 0,5 UV-I 338 W/m 12,9 km/h (3 Bft)
26.10.2013 12:44 19,1 C 16,7 C 84 % 1011,2 hPa 0,0 l/m 0 min 0 min 0,5 UV-I 202 W/m 18,0 km/h (3 Bft)
26.10.2013 12:46 19,1 C 16,7 C 83 % 1011,3 hPa 0,0 l/m 2 min 0 min 0,5 UV-I 316 W/m 15,4 km/h (3 Bft)
26.10.2013 12:48 19,2 C 16,7 C 83 % 1011,3 hPa 0,0 l/m 2 min 0 min 0,5 UV-I 359 W/m 12,9 km/h (3 Bft)
26.10.2013 12:50 19,3 C 16,7 C 82 % 1011,2 hPa 0,0 l/m 2 min 0 min 0,5 UV-I 387 W/m 20,6 km/h (4 Bft)
26.10.2013 12:52 19,4 C 17,2 C 82 % 1011,4 hPa 0,0 l/m 2 min 0 min 0,5 UV-I 413 W/m 15,4 km/h (3 Bft)
26.10.2013 12:54 19,5 C 17,2 C 82 % 1011,4 hPa 0,0 l/m 2 min 0 min 0,5 UV-I 308 W/m 12,9 km/h (3 Bft)
26.10.2013 12:56 19,6 C 17,2 C 81 % 1011,4 hPa 0,0 l/m 0 min 0 min 0,5 UV-I 243 W/m 18,0 km/h (3 Bft)
26.10.2013 12:58 19,6 C 16,7 C 81 % 1011,4 hPa 0,0 l/m 2 min 0 min 0,5 UV-I 329 W/m 5,1 km/h (1 Bft)
26.10.2013 13:00 19,6 C 17,2 C 81 % 1011,4 hPa 0,0 l/m 0 min 0 min 0,5 UV-I 193 W/m 20,6 km/h (4 Bft)
26.10.2013 13:02 19,5 C 17,2 C 80 % 1011,4 hPa 0,0 l/m 2 min 0 min 0,6 UV-I 367 W/m 12,9 km/h (3 Bft)
26.10.2013 13:06 19,4 C 17,2 C 81 % 1011,4 hPa 0,0 l/m 2 min 0 min 0,7 UV-I 258 W/m 15,4 km/h (3 Bft)
26.10.2013 13:08 19,6 C 17,2 C 82 % 1011,4 hPa 0,0 l/m 2 min 0 min 0,7 UV-I 455 W/m 5,1 km/h (1 Bft)
26.10.2013 13:10 19,7 C 17,8 C 80 % 1011,4 hPa 0,0 l/m 2 min 0 min 0,7 UV-I 406 W/m 10,3 km/h (2 Bft)
26.10.2013 13:12 19,9 C 17,8 C 80 % 1011,4 hPa 0,0 l/m 2 min 0 min 0,7 UV-I 404 W/m 15,4 km/h (3 Bft)
26.10.2013 13:14 19,9 C 17,8 C 79 % 1011,5 hPa 0,0 l/m 2 min 0 min 0,7 UV-I 338 W/m 7,7 km/h (2 Bft)
26.10.2013 13:16 20,1 C 17,8 C 79 % 1011,2 hPa 0,0 l/m 2 min 0 min 0,7 UV-I 264 W/m 12,9 km/h (3 Bft)
26.10.2013 13:18 20,1 C 17,8 C 79 % 1011,2 hPa 0,0 l/m 2 min 0 min 0,8 UV-I 357 W/m 7,7 km/h (2 Bft)
26.10.2013 13:20 20,1 C 17,8 C 79 % 1011,1 hPa 0,0 l/m 2 min 0 min 0,9 UV-I 359 W/m 12,9 km/h (3 Bft)
26.10.2013 13:22 20,2 C 18,3 C 78 % 1011,1 hPa 0,0 l/m 2 min 0 min 1,1 UV-I 443 W/m 28,3 km/h (4 Bft)
26.10.2013 13:24 20,2 C 18,3 C 77 % 1011,3 hPa 0,0 l/m 2 min 0 min 1,1 UV-I 431 W/m 15,4 km/h (3 Bft)
26.10.2013 13:26 20,3 C 18,3 C 77 % 1011,1 hPa 0,0 l/m 2 min 0 min 1,0 UV-I 360 W/m 18,0 km/h (3 Bft)
26.10.2013 13:28 20,3 C 17,8 C 76 % 1011,2 hPa 0,0 l/m 2 min 0 min 0,9 UV-I 330 W/m 20,6 km/h (4 Bft)
26.10.2013 13:30 20,3 C 18,3 C 77 % 1011,2 hPa 0,0 l/m 2 min 0 min 0,9 UV-I 346 W/m 20,6 km/h (4 Bft)
26.10.2013 13:32 20,3 C 18,3 C 76 % 1011,2 hPa 0,0 l/m 2 min 0 min 0,8 UV-I 271 W/m 20,6 km/h (4 Bft)
26.10.2013 13:34 20,3 C 18,3 C 76 % 1011,2 hPa 0,0 l/m 2 min 0 min 0,8 UV-I 373 W/m 18,0 km/h (3 Bft)
26.10.2013 13:36 20,3 C 18,3 C 76 % 1011,2 hPa 0,0 l/m 2 min 0 min 0,9 UV-I 274 W/m 30,9 km/h (5 Bft)
26.10.2013 13:38 20,4 C 18,3 C 76 % 1011,0 hPa 0,0 l/m 2 min 0 min 1,1 UV-I 497 W/m 7,7 km/h (2 Bft)
26.10.2013 13:40 20,6 C 18,3 C 76 % 1010,9 hPa 0,0 l/m 2 min 0 min 1,2 UV-I 529 W/m 15,4 km/h (3 Bft)
26.10.2013 13:42 20,8 C 18,9 C 75 % 1010,9 hPa 0,0 l/m 2 min 0 min 1,2 UV-I 487 W/m 15,4 km/h (3 Bft)
26.10.2013 13:44 20,9 C 18,9 C 74 % 1010,8 hPa 0,0 l/m 2 min 0 min 1,1 UV-I 443 W/m 18,0 km/h (3 Bft)
26.10.2013 13:46 21,0 C 18,9 C 76 % 1010,9 hPa 0,0 l/m 2 min 0 min 1,1 UV-I 422 W/m 7,7 km/h (2 Bft)
26.10.2013 13:48 21,1 C 18,9 C 76 % 1010,9 hPa 0,0 l/m 2 min 0 min 1,1 UV-I 403 W/m 5,1 km/h (1 Bft)
26.10.2013 13:50 21,2 C 18,9 C 74 % 1010,8 hPa 0,0 l/m 2 min 0 min 1,0 UV-I 403 W/m 18,0 km/h (3 Bft)
26.10.2013 13:52 21,2 C 18,9 C 75 % 1010,8 hPa 0,0 l/m 2 min 0 min 1,0 UV-I 396 W/m 5,1 km/h (1 Bft)
26.10.2013 13:54 21,2 C 18,3 C 75 % 1010,9 hPa 0,0 l/m 2 min 0 min 0,7 UV-I 290 W/m 5,1 km/h (1 Bft)
26.10.2013 13:56 21,1 C 18,3 C 74 % 1010,9 hPa 0,0 l/m 2 min 0 min 0,9 UV-I 290 W/m 0,0 km/h (0 Bft)
26.10.2013 13:58 21,0 C 18,3 C 75 % 1010,9 hPa 0,0 l/m 0 min 0 min 0,6 UV-I 102 W/m 10,3 km/h (2 Bft)
26.10.2013 14:00 20,8 C 18,3 C 74 % 1011,0 hPa 0,0 l/m 0 min 0 min 0,6 UV-I 146 W/m 20,6 km/h (4 Bft)
26.10.2013 14:02 20,7 C 18,3 C 75 % 1011,0 hPa 0,0 l/m 0 min 0 min 0,5 UV-I 156 W/m 10,3 km/h (2 Bft)
26.10.2013 14:06 20,5 C 18,3 C 76 % 1011,0 hPa 0,0 l/m 2 min 0 min 0,8 UV-I 346 W/m 28,3 km/h (4 Bft)
26.10.2013 14:08 20,6 C 18,9 C 75 % 1011,1 hPa 0,0 l/m 2 min 0 min 0,9 UV-I 316 W/m 18,0 km/h (3 Bft)
26.10.2013 14:10 20,7 C 18,9 C 75 % 1010,9 hPa 0,0 l/m 2 min 0 min 1,1 UV-I 367 W/m 12,9 km/h (3 Bft)
26.10.2013 14:12 20,9 C 19,4 C 74 % 1010,9 hPa 0,0 l/m 2 min 0 min 0,6 UV-I 543 W/m 10,3 km/h (2 Bft)
26.10.2013 14:14 21,0 C 19,4 C 73 % 1010,8 hPa 0,0 l/m 0 min 0 min 0,5 UV-I 163 W/m 12,9 km/h (3 Bft)
26.10.2013 14:16 20,9 C 18,9 C 73 % 1010,9 hPa 0,0 l/m 0 min 0 min 0,5 UV-I 174 W/m 20,6 km/h (4 Bft)
26.10.2013 14:18 20,8 C 18,9 C 73 % 1010,9 hPa 0,0 l/m 0 min 0 min 0,7 UV-I 186 W/m 25,7 km/h (4 Bft)
26.10.2013 14:20 20,8 C 18,9 C 73 % 1011,0 hPa 0,0 l/m 2 min 0 min 0,7 UV-I 536 W/m 20,6 km/h (4 Bft)
26.10.2013 14:22 20,8 C 18,9 C 73 % 1010,9 hPa 0,0 l/m 2 min 0 min 0,5 UV-I 239 W/m 15,4 km/h (3 Bft)
26.10.2013 14:24 20,7 C 18,9 C 73 % 1010,8 hPa 0,0 l/m 0 min 0 min 0,5 UV-I 211 W/m 12,9 km/h (3 Bft)
26.10.2013 14:26 20,7 C 18,9 C 73 % 1010,9 hPa 0,0 l/m 0 min 0 min 0,5 UV-I 213 W/m 10,3 km/h (2 Bft)
26.10.2013 14:28 20,7 C 18,9 C 72 % 1010,9 hPa 0,0 l/m 2 min 0 min 1,0 UV-I 538 W/m 28,3 km/h (4 Bft)
26.10.2013 14:30 20,9 C 19,4 C 73 % 1010,8 hPa 0,0 l/m 2 min 0 min 1,0 UV-I 473 W/m 10,3 km/h (2 Bft)
26.10.2013 14:32 21,1 C 19,4 C 72 % 1010,8 hPa 0,0 l/m 2 min 0 min 0,8 UV-I 418 W/m 23,2 km/h (4 Bft)
26.10.2013 14:34 21,2 C 18,9 C 71 % 1010,7 hPa 0,0 l/m 2 min 0 min 0,9 UV-I 371 W/m 12,9 km/h (3 Bft)
26.10.2013 14:36 21,2 C 18,9 C 71 % 1010,7 hPa 0,0 l/m 2 min 0 min 0,8 UV-I 373 W/m 12,9 km/h (3 Bft)
26.10.2013 14:38 21,2 C 18,9 C 71 % 1010,6 hPa 0,0 l/m 2 min 0 min 0,8 UV-I 371 W/m 15,4 km/h (3 Bft)
26.10.2013 14:40 21,2 C 18,9 C 71 % 1010,7 hPa 0,0 l/m 2 min 0 min 0,7 UV-I 366 W/m 12,9 km/h (3 Bft)
26.10.2013 14:42 21,2 C 18,9 C 71 % 1010,6 hPa 0,0 l/m 2 min 0 min 0,8 UV-I 357 W/m 20,6 km/h (4 Bft)
26.10.2013 14:44 21,1 C 18,9 C 70 % 1010,6 hPa 0,0 l/m 2 min 0 min 0,8 UV-I 355 W/m 12,9 km/h (3 Bft)
26.10.2013 14:46 21,1 C 18,9 C 70 % 1010,6 hPa 0,0 l/m 2 min 0 min 0,8 UV-I 350 W/m 20,6 km/h (4 Bft)
26.10.2013 14:48 21,1 C 18,9 C 71 % 1010,6 hPa 0,0 l/m 2 min 0 min 0,8 UV-I 350 W/m 20,6 km/h (4 Bft)
26.10.2013 14:50 21,1 C 18,9 C 71 % 1010,5 hPa 0,0 l/m 2 min 0 min 0,8 UV-I 345 W/m 7,7 km/h (2 Bft)
26.10.2013 14:52 21,1 C 18,9 C 71 % 1010,5 hPa 0,0 l/m 2 min 0 min 0,7 UV-I 343 W/m 7,7 km/h (2 Bft)
26.10.2013 14:54 21,2 C 18,9 C 71 % 1010,4 hPa 0,0 l/m 2 min 0 min 0,7 UV-I 343 W/m 7,7 km/h (2 Bft)
26.10.2013 14:56 21,2 C 18,9 C 72 % 1010,3 hPa 0,0 l/m 2 min 0 min 0,6 UV-I 341 W/m 12,9 km/h (3 Bft)
26.10.2013 14:58 21,2 C 18,9 C 72 % 1010,3 hPa 0,0 l/m 2 min 0 min 0,7 UV-I 355 W/m 0,0 km/h (0 Bft)
26.10.2013 15:00 21,3 C 18,9 C 71 % 1010,4 hPa 0,0 l/m 2 min 0 min 0,7 UV-I 360 W/m 15,4 km/h (3 Bft)
26.10.2013 15:02 21,3 C 18,3 C 72 % 1010,3 hPa 0,0 l/m 2 min 0 min 0,0 UV-I 360 W/m 18,0 km/h (3 Bft)
26.10.2013 15:06 21,3 C 18,9 C 70 % 1010,3 hPa 0,0 l/m 2 min 0 min 0,0 UV-I 353 W/m 15,4 km/h (3 Bft)
26.10.2013 15:08 21,2 C 18,9 C 70 % 1010,4 hPa 0,0 l/m 0 min 0 min 0,7 UV-I 134 W/m 23,2 km/h (4 Bft)
26.10.2013 15:10 21,2 C 18,9 C 71 % 1010,2 hPa 0,0 l/m 2 min 0 min 0,5 UV-I 276 W/m 12,9 km/h (3 Bft)
26.10.2013 15:12 21,3 C 18,9 C 72 % 1010,2 hPa 0,0 l/m 2 min 0 min 0,6 UV-I 411 W/m 12,9 km/h (3 Bft)
26.10.2013 15:14 21,4 C 19,4 C 70 % 1010,2 hPa 0,0 l/m 2 min 0 min 0,6 UV-I 411 W/m 7,7 km/h (2 Bft)
26.10.2013 15:16 21,4 C 19,4 C 70 % 1010,2 hPa 0,0 l/m 2 min 0 min 0,6 UV-I 397 W/m 5,1 km/h (1 Bft)
26.10.2013 15:18 21,6 C 19,4 C 71 % 1010,2 hPa 0,0 l/m 2 min 0 min 0,0 UV-I 390 W/m 5,1 km/h (1 Bft)
26.10.2013 15:20 21,6 C 19,4 C 69 % 1010,3 hPa 0,0 l/m 0 min 0 min 0,0 UV-I 158 W/m 23,2 km/h (4 Bft)
26.10.2013 15:22 21,4 C 18,9 C 69 % 1010,1 hPa 0,0 l/m 2 min 0 min 0,5 UV-I 287 W/m 18,0 km/h (3 Bft)
26.10.2013 15:24 21,3 C 18,9 C 69 % 1010,1 hPa 0,0 l/m 2 min 0 min 0,5 UV-I 308 W/m 25,7 km/h (4 Bft)
26.10.2013 15:26 21,2 C 18,9 C 70 % 1009,9 hPa 0,0 l/m 2 min 0 min 0,0 UV-I 308 W/m 15,4 km/h (3 Bft)
26.10.2013 15:28 21,1 C 18,3 C 69 % 1010,0 hPa 0,0 l/m 0 min 0 min 0,0 UV-I 84 W/m 15,4 km/h (3 Bft)
26.10.2013 15:30 20,9 C 18,3 C 69 % 1010,0 hPa 0,0 l/m 0 min 0 min 0,0 UV-I 79 W/m 7,7 km/h (2 Bft)
26.10.2013 15:32 20,8 C 18,3 C 70 % 1010,0 hPa 0,0 l/m 0 min 0 min 0,0 UV-I 121 W/m 7,7 km/h (2 Bft)
26.10.2013 15:34 20,7 C 18,3 C 71 % 1010,0 hPa 0,0 l/m 2 min 0 min 0,5 UV-I 316 W/m 5,1 km/h (1 Bft)
26.10.2013 15:36 20,8 C 18,9 C 72 % 1009,9 hPa 0,0 l/m 2 min 0 min 0,0 UV-I 336 W/m 15,4 km/h (3 Bft)
26.10.2013 15:38 21,0 C 18,9 C 71 % 1009,9 hPa 0,0 l/m 2 min 0 min 0,0 UV-I 322 W/m 18,0 km/h (3 Bft)
26.10.2013 15:40 21,1 C 18,9 C 70 % 1009,9 hPa 0,0 l/m 0 min 0 min 0,0 UV-I 91 W/m 23,2 km/h (4 Bft)
26.10.2013 15:42 21,1 C 18,3 C 69 % 1009,7 hPa 0,0 l/m 0 min 0 min 0,0 UV-I 104 W/m 25,7 km/h (4 Bft)
26.10.2013 15:44 21,0 C 18,3 C 69 % 1009,9 hPa 0,0 l/m 2 min 0 min 0,0 UV-I 248 W/m 12,9 km/h (3 Bft)
26.10.2013 15:46 21,0 C 18,3 C 70 % 1010,1 hPa 0,0 l/m 2 min 0 min 0,0 UV-I 316 W/m 15,4 km/h (3 Bft)
26.10.2013 15:48 21,1 C 18,9 C 69 % 1009,9 hPa 0,0 l/m 2 min 0 min 0,0 UV-I 308 W/m 20,6 km/h (4 Bft)
26.10.2013 15:50 21,2 C 18,9 C 69 % 1010,0 hPa 0,0 l/m 2 min 0 min 0,0 UV-I 323 W/m 12,9 km/h (3 Bft)
26.10.2013 15:52 21,3 C 18,9 C 70 % 1010,1 hPa 0,0 l/m 2 min 0 min 0,0 UV-I 188 W/m 2,6 km/h (1 Bft)
26.10.2013 15:54 21,3 C 18,9 C 69 % 1010,1 hPa 0,0 l/m 0 min 0 min 0,0 UV-I 128 W/m 12,9 km/h (3 Bft)
26.10.2013 15:56 21,2 C 18,9 C 69 % 1010,0 hPa 0,0 l/m 0 min 0 min 0,0 UV-I 104 W/m 2,6 km/h (1 Bft)
26.10.2013 15:58 21,1 C 18,9 C 70 % 1010,0 hPa 0,0 l/m 0 min 0 min 0,0 UV-I 84 W/m 7,7 km/h (2 Bft)
26.10.2013 16:00 20,9 C 18,9 C 70 % 1010,1 hPa 0,0 l/m 0 min 0 min 0,0 UV-I 90 W/m 7,7 km/h (2 Bft)
26.10.2013 16:02 20,7 C 18,3 C 70 % 1010,1 hPa 0,0 l/m 0 min 0 min 0,0 UV-I 95 W/m 15,4 km/h (3 Bft)
26.10.2013 16:06 20,6 C 18,3 C 71 % 1010,0 hPa 0,0 l/m 0 min 0 min 0,0 UV-I 137 W/m 18,0 km/h (3 Bft)
26.10.2013 16:08 20,5 C 18,3 C 71 % 1010,0 hPa 0,0 l/m 0 min 0 min 0,0 UV-I 95 W/m 18,0 km/h (3 Bft)
26.10.2013 16:10 20,4 C 18,3 C 71 % 1010,0 hPa 0,0 l/m 0 min 0 min 0,0 UV-I 74 W/m 15,4 km/h (3 Bft)
26.10.2013 16:12 20,4 C 18,3 C 71 % 1009,9 hPa 0,0 l/m 0 min 0 min 0,0 UV-I 81 W/m 18,0 km/h (3 Bft)
26.10.2013 16:14 20,3 C 18,3 C 72 % 1010,0 hPa 0,0 l/m 0 min 0 min 0,0 UV-I 97 W/m 18,0 km/h (3 Bft)
26.10.2013 16:16 20,3 C 18,3 C 72 % 1010,0 hPa 0,0 l/m 0 min 0 min 0,0 UV-I 111 W/m 18,0 km/h (3 Bft)
26.10.2013 16:18 20,3 C 18,3 C 72 % 1009,9 hPa 0,0 l/m 0 min 0 min 0,0 UV-I 114 W/m 23,2 km/h (4 Bft)
26.10.2013 16:20 20,2 C 18,3 C 72 % 1009,9 hPa 0,0 l/m 0 min 0 min 0,0 UV-I 116 W/m 15,4 km/h (3 Bft)
26.10.2013 16:22 20,2 C 18,3 C 73 % 1009,8 hPa 0,0 l/m 0 min 0 min 0,0 UV-I 121 W/m 7,7 km/h (2 Bft)
26.10.2013 16:24 20,2 C 18,3 C 73 % 1009,9 hPa 0,0 l/m 0 min 0 min 0,0 UV-I 134 W/m 18,0 km/h (3 Bft)
26.10.2013 16:26 20,3 C 18,3 C 74 % 1009,8 hPa 0,0 l/m 2 min 0 min 0,0 UV-I 288 W/m 7,7 km/h (2 Bft)
26.10.2013 16:28 20,4 C 18,3 C 74 % 1009,9 hPa 0,0 l/m 2 min 0 min 0,0 UV-I 302 W/m 7,7 km/h (2 Bft)
26.10.2013 16:30 20,6 C 18,9 C 73 % 1009,9 hPa 0,0 l/m 2 min 0 min 0,0 UV-I 253 W/m 10,3 km/h (2 Bft)
26.10.2013 16:32 20,7 C 18,3 C 73 % 1009,8 hPa 0,0 l/m 2 min 0 min 0,0 UV-I 211 W/m 15,4 km/h (3 Bft)
26.10.2013 16:34 20,7 C 18,3 C 73 % 1009,8 hPa 0,0 l/m 2 min 0 min 0,0 UV-I 199 W/m 5,1 km/h (1 Bft)
26.10.2013 16:36 20,7 C 18,3 C 73 % 1009,8 hPa 0,0 l/m 0 min 0 min 0,0 UV-I 79 W/m 20,6 km/h (4 Bft)
26.10.2013 16:38 20,6 C 18,3 C 73 % 1009,8 hPa 0,0 l/m 2 min 0 min 0,0 UV-I 199 W/m 10,3 km/h (2 Bft)
26.10.2013 16:40 20,6 C 18,3 C 74 % 1009,9 hPa 0,0 l/m 0 min 0 min 0,0 UV-I 86 W/m 12,9 km/h (3 Bft)
26.10.2013 16:42 20,4 C 18,3 C 74 % 1009,9 hPa 0,0 l/m 0 min 0 min 0,0 UV-I 77 W/m 12,9 km/h (3 Bft)
26.10.2013 16:44 20,3 C 18,3 C 74 % 1009,9 hPa 0,0 l/m 0 min 0 min 0,0 UV-I 98 W/m 20,6 km/h (4 Bft)
26.10.2013 16:46 20,3 C 17,8 C 74 % 1009,9 hPa 0,0 l/m 0 min 0 min 0,0 UV-I 95 W/m 18,0 km/h (3 Bft)
26.10.2013 16:48 20,2 C 17,8 C 75 % 1010,0 hPa 0,0 l/m 2 min 0 min 0,0 UV-I 120 W/m 23,2 km/h (4 Bft)
26.10.2013 16:50 20,2 C 17,8 C 75 % 1010,0 hPa 0,0 l/m 2 min 0 min 0,0 UV-I 153 W/m 20,6 km/h (4 Bft)
26.10.2013 16:52 20,1 C 17,8 C 76 % 1010,0 hPa 0,0 l/m 0 min 0 min 0,0 UV-I 81 W/m 0,0 km/h (0 Bft)
26.10.2013 16:54 20,1 C 17,8 C 76 % 1009,9 hPa 0,0 l/m 0 min 0 min 0,0 UV-I 72 W/m 20,6 km/h (4 Bft)
26.10.2013 16:56 20,0 C 17,8 C 76 % 1009,9 hPa 0,0 l/m 0 min 0 min 0,0 UV-I 83 W/m 15,4 km/h (3 Bft)
26.10.2013 16:58 19,9 C 17,8 C 76 % 1009,9 hPa 0,0 l/m 0 min 0 min 0,0 UV-I 74 W/m 10,3 km/h (2 Bft)
26.10.2013 17:00 19,9 C 17,8 C 76 % 1010,0 hPa 0,0 l/m 0 min 0 min 0,0 UV-I 58 W/m 12,9 km/h (3 Bft)
26.10.2013 17:02 19,9 C 17,8 C 77 % 1010,0 hPa 0,0 l/m 0 min 0 min 0,0 UV-I 42 W/m 5,1 km/h (1 Bft)
26.10.2013 17:06 19,8 C 17,8 C 77 % 1010,0 hPa 0,0 l/m 0 min 0 min 0,0 UV-I 51 W/m 12,9 km/h (3 Bft)
26.10.2013 17:08 19,7 C 17,8 C 78 % 1009,9 hPa 0,0 l/m 0 min 0 min 0,0 UV-I 60 W/m 7,7 km/h (2 Bft)
26.10.2013 17:10 19,7 C 17,8 C 78 % 1009,8 hPa 0,0 l/m 0 min 0 min 0,0 UV-I 77 W/m 10,3 km/h (2 Bft)
26.10.2013 17:12 19,7 C 17,8 C 78 % 1009,7 hPa 0,0 l/m 0 min 0 min 0,0 UV-I 74 W/m 18,0 km/h (3 Bft)
26.10.2013 17:14 19,7 C 17,8 C 78 % 1009,7 hPa 0,0 l/m 0 min 0 min 0,0 UV-I 74 W/m 0,0 km/h (0 Bft)
26.10.2013 17:16 19,7 C 17,8 C 78 % 1009,6 hPa 0,0 l/m 0 min 0 min 0,0 UV-I 72 W/m 7,7 km/h (2 Bft)
26.10.2013 17:18 19,7 C 17,8 C 78 % 1009,5 hPa 0,0 l/m 0 min 0 min 0,0 UV-I 65 W/m 15,4 km/h (3 Bft)
26.10.2013 17:20 19,7 C 17,8 C 78 % 1009,6 hPa 0,0 l/m 0 min 0 min 0,0 UV-I 47 W/m 20,6 km/h (4 Bft)
26.10.2013 17:22 19,7 C 17,8 C 78 % 1009,5 hPa 0,0 l/m 0 min 0 min 0,0 UV-I 44 W/m 2,6 km/h (1 Bft)
26.10.2013 17:24 19,7 C 17,8 C 79 % 1009,5 hPa 0,0 l/m 0 min 0 min 0,0 UV-I 35 W/m 15,4 km/h (3 Bft)
26.10.2013 17:26 19,6 C 17,2 C 78 % 1009,6 hPa 0,0 l/m 0 min 0 min 0,0 UV-I 33 W/m 15,4 km/h (3 Bft)
26.10.2013 17:28 19,6 C 17,2 C 79 % 1009,5 hPa 0,0 l/m 0 min 0 min 0,0 UV-I 30 W/m 10,3 km/h (2 Bft)
26.10.2013 17:30 19,6 C 17,2 C 79 % 1009,6 hPa 0,0 l/m 0 min 0 min 0,0 UV-I 28 W/m 15,4 km/h (3 Bft)
26.10.2013 17:32 19,6 C 17,2 C 79 % 1009,5 hPa 0,0 l/m 0 min 0 min 0,0 UV-I 28 W/m 12,9 km/h (3 Bft)
26.10.2013 17:34 19,5 C 17,2 C 79 % 1009,6 hPa 0,0 l/m 0 min 0 min 0,0 UV-I 26 W/m 12,9 km/h (3 Bft)
26.10.2013 17:36 19,4 C 17,2 C 79 % 1009,6 hPa 0,0 l/m 0 min 0 min 0,0 UV-I 25 W/m 0,0 km/h (0 Bft)
26.10.2013 17:38 19,4 C 17,2 C 80 % 1009,7 hPa 0,0 l/m 0 min 0 min 0,0 UV-I 23 W/m 0,0 km/h (0 Bft)
26.10.2013 17:40 19,3 C 17,2 C 80 % 1009,7 hPa 0,0 l/m 0 min 0 min 0,0 UV-I 21 W/m 15,4 km/h (3 Bft)
26.10.2013 17:42 19,3 C 17,2 C 80 % 1009,6 hPa 0,0 l/m 0 min 0 min 0,0 UV-I 18 W/m 7,7 km/h (2 Bft)
26.10.2013 17:44 19,3 C 17,2 C 80 % 1009,8 hPa 0,0 l/m 0 min 0 min 0,0 UV-I 16 W/m 20,6 km/h (4 Bft)
26.10.2013 17:46 19,2 C 16,7 C 80 % 1009,7 hPa 0,0 l/m 0 min 0 min 0,0 UV-I 18 W/m 0,0 km/h (0 Bft)
26.10.2013 17:48 19,1 C 16,7 C 81 % 1009,8 hPa 0,0 l/m 0 min 0 min 0,0 UV-I 19 W/m 2,6 km/h (1 Bft)
26.10.2013 17:50 19,1 C 16,7 C 81 % 1009,8 hPa 0,0 l/m 0 min 0 min 0,0 UV-I 18 W/m 10,3 km/h (2 Bft)
26.10.2013 17:52 19,1 C 16,7 C 81 % 1009,8 hPa 0,0 l/m 0 min 0 min 0,0 UV-I 14 W/m 7,7 km/h (2 Bft)
26.10.2013 17:54 18,9 C 16,7 C 82 % 1009,8 hPa 0,0 l/m 0 min 0 min 0,0 UV-I 14 W/m 12,9 km/h (3 Bft)
26.10.2013 17:56 18,9 C 16,7 C 82 % 1009,8 hPa 0,0 l/m 0 min 0 min 0,0 UV-I 14 W/m 7,7 km/h (2 Bft)
26.10.2013 17:58 18,8 C 16,7 C 82 % 1009,8 hPa 0,0 l/m 0 min 0 min 0,0 UV-I 12 W/m 10,3 km/h (2 Bft)
26.10.2013 18:00 18,8 C 16,7 C 82 % 1009,8 hPa 0,0 l/m 0 min 0 min 0,0 UV-I 12 W/m 7,7 km/h (2 Bft)
26.10.2013 18:02 18,8 C 16,7 C 82 % 1009,7 hPa 0,0 l/m 0 min 0 min 0,0 UV-I 11 W/m 7,7 km/h (2 Bft)
26.10.2013 18:06 18,8 C 16,7 C 82 % 1009,7 hPa 0,0 l/m 0 min 0 min 0,0 UV-I 9 W/m 7,7 km/h (2 Bft)
26.10.2013 18:08 18,7 C 16,7 C 83 % 1009,7 hPa 0,0 l/m 0 min 0 min 0,0 UV-I 9 W/m 10,3 km/h (2 Bft)
26.10.2013 18:10 18,7 C 16,7 C 83 % 1009,7 hPa 0,0 l/m 0 min 0 min 0,0 UV-I 7 W/m 2,6 km/h (1 Bft)
26.10.2013 18:12 18,7 C 16,7 C 83 % 1009,7 hPa 0,0 l/m 0 min 0 min 0,0 UV-I 7 W/m 33,5 km/h (5 Bft)
26.10.2013 18:14 18,7 C 16,7 C 83 % 1009,7 hPa 0,0 l/m 0 min 0 min 0,0 UV-I 7 W/m 12,9 km/h (3 Bft)
26.10.2013 18:16 18,7 C 16,7 C 84 % 1009,7 hPa 0,0 l/m 0 min 0 min 0,0 UV-I 7 W/m 7,7 km/h (2 Bft)
26.10.2013 18:18 18,7 C 16,7 C 84 % 1009,7 hPa 0,0 l/m 0 min 0 min 0,0 UV-I 5 W/m 15,4 km/h (3 Bft)
26.10.2013 18:20 18,7 C 16,7 C 84 % 1009,6 hPa 0,0 l/m 0 min 0 min 0,0 UV-I 5 W/m 15,4 km/h (3 Bft)
26.10.2013 18:22 18,7 C 16,7 C 84 % 1009,7 hPa 0,0 l/m 0 min 0 min 0,0 UV-I 0 W/m 10,3 km/h (2 Bft)
26.10.2013 18:24 18,7 C 16,7 C 84 % 1009,6 hPa 0,0 l/m 0 min 0 min 0,0 UV-I 0 W/m 25,7 km/h (4 Bft)
26.10.2013 18:26 18,6 C 16,7 C 84 % 1009,6 hPa 0,0 l/m 0 min 0 min 0,0 UV-I 0 W/m 18,0 km/h (3 Bft)
26.10.2013 18:28 18,7 C 16,7 C 84 % 1009,6 hPa 0,0 l/m 0 min 0 min 0,0 UV-I 0 W/m 23,2 km/h (4 Bft)
26.10.2013 18:30 18,7 C 16,7 C 84 % 1009,6 hPa 0,0 l/m 0 min 0 min 0,0 UV-I 0 W/m 23,2 km/h (4 Bft)
26.10.2013 18:32 18,7 C 16,7 C 84 % 1009,6 hPa 0,0 l/m 0 min 0 min 0,0 UV-I 0 W/m 0,0 km/h (0 Bft)
26.10.2013 18:34 18,6 C 16,7 C 84 % 1009,6 hPa 0,0 l/m 0 min 0 min 0,0 UV-I 0 W/m 2,6 km/h (1 Bft)
26.10.2013 18:36 18,6 C 16,7 C 84 % 1009,6 hPa 0,0 l/m 0 min 0 min 0,0 UV-I 0 W/m 2,6 km/h (1 Bft)
26.10.2013 18:38 18,6 C 16,7 C 84 % 1009,6 hPa 0,0 l/m 0 min 0 min 0,0 UV-I 0 W/m 20,6 km/h (4 Bft)
26.10.2013 18:40 18,6 C 16,7 C 84 % 1009,5 hPa 0,0 l/m 0 min 0 min 0,0 UV-I 0 W/m 12,9 km/h (3 Bft)
26.10.2013 18:42 18,6 C 16,7 C 84 % 1009,6 hPa 0,0 l/m 0 min 0 min 0,0 UV-I 0 W/m 12,9 km/h (3 Bft)
26.10.2013 18:44 18,5 C 16,7 C 84 % 1009,5 hPa 0,0 l/m 0 min 0 min 0,0 UV-I 0 W/m 2,6 km/h (1 Bft)
26.10.2013 18:46 18,5 C 16,7 C 84 % 1009,7 hPa 0,0 l/m 0 min 0 min 0,0 UV-I 0 W/m 12,9 km/h (3 Bft)
26.10.2013 18:48 18,4 C 16,7 C 84 % 1009,7 hPa 0,0 l/m 0 min 0 min 0,0 UV-I 0 W/m 2,6 km/h (1 Bft)
26.10.2013 18:50 18,4 C 16,7 C 85 % 1009,6 hPa 0,0 l/m 0 min 0 min 0,0 UV-I 0 W/m 7,7 km/h (2 Bft)
26.10.2013 18:52 18,4 C 16,1 C 85 % 1009,7 hPa 0,0 l/m 0 min 0 min 0,0 UV-I 0 W/m 12,9 km/h (3 Bft)
26.10.2013 18:54 18,4 C 16,7 C 85 % 1009,8 hPa 0,0 l/m 0 min 0 min 0,0 UV-I 0 W/m 10,3 km/h (2 Bft)
26.10.2013 18:56 18,4 C 16,7 C 85 % 1009,8 hPa 0,0 l/m 0 min 0 min 0,0 UV-I 0 W/m 10,3 km/h (2 Bft)
26.10.2013 18:58 18,4 C 16,7 C 85 % 1009,7 hPa 0,0 l/m 0 min 0 min 0,0 UV-I 0 W/m 10,3 km/h (2 Bft)
26.10.2013 19:00 18,3 C 16,1 C 85 % 1009,7 hPa 0,0 l/m 0 min 0 min 0,0 UV-I 0 W/m 5,1 km/h (1 Bft)
26.10.2013 19:02 18,3 C 16,1 C 85 % 1009,7 hPa 0,0 l/m 0 min 0 min 0,0 UV-I 0 W/m 10,3 km/h (2 Bft)
26.10.2013 19:06 18,3 C 16,1 C 85 % 1009,7 hPa 0,0 l/m 0 min 0 min 0,0 UV-I 0 W/m 18,0 km/h (3 Bft)
26.10.2013 19:08 18,2 C 16,1 C 85 % 1009,7 hPa 0,0 l/m 0 min 0 min 0,0 UV-I 0 W/m 5,1 km/h (1 Bft)
26.10.2013 19:10 18,2 C 16,1 C 85 % 1009,7 hPa 0,0 l/m 0 min 0 min 0,0 UV-I 0 W/m 5,1 km/h (1 Bft)
26.10.2013 19:12 18,2 C 16,1 C 85 % 1009,7 hPa 0,0 l/m 0 min 0 min 0,0 UV-I 0 W/m 5,1 km/h (1 Bft)
26.10.2013 19:14 18,1 C 16,1 C 85 % 1009,7 hPa 0,0 l/m 0 min 0 min 0,0 UV-I 0 W/m 15,4 km/h (3 Bft)
26.10.2013 19:16 18,1 C 16,1 C 85 % 1009,7 hPa 0,0 l/m 0 min 0 min 0,0 UV-I 0 W/m 2,6 km/h (1 Bft)
26.10.2013 19:18 18,1 C 16,1 C 85 % 1009,7 hPa 0,0 l/m 0 min 0 min 0,0 UV-I 0 W/m 15,4 km/h (3 Bft)
26.10.2013 19:20 18,0 C 16,1 C 86 % 1009,7 hPa 0,0 l/m 0 min 0 min 0,0 UV-I 0 W/m 12,9 km/h (3 Bft)
26.10.2013 19:22 18,0 C 16,1 C 86 % 1009,7 hPa 0,0 l/m 0 min 0 min 0,0 UV-I 0 W/m 2,6 km/h (1 Bft)
26.10.2013 19:24 17,9 C 15,6 C 86 % 1009,8 hPa 0,0 l/m 0 min 0 min 0,0 UV-I 0 W/m 10,3 km/h (2 Bft)
26.10.2013 19:26 17,9 C 15,6 C 86 % 1009,8 hPa 0,0 l/m 0 min 0 min 0,0 UV-I 0 W/m 10,3 km/h (2 Bft)
26.10.2013 19:28 17,8 C 15,6 C 86 % 1009,8 hPa 0,0 l/m 0 min 0 min 0,0 UV-I 0 W/m 10,3 km/h (2 Bft)
26.10.2013 19:30 17,8 C 15,6 C 86 % 1009,8 hPa 0,0 l/m 0 min 0 min 0,0 UV-I 0 W/m 15,4 km/h (3 Bft)
26.10.2013 19:32 17,8 C 15,6 C 86 % 1009,9 hPa 0,0 l/m 0 min 0 min 0,0 UV-I 0 W/m 18,0 km/h (3 Bft)
26.10.2013 19:34 17,7 C 15,6 C 86 % 1009,9 hPa 0,0 l/m 0 min 0 min 0,0 UV-I 0 W/m 12,9 km/h (3 Bft)
26.10.2013 19:36 17,7 C 15,6 C 86 % 1009,8 hPa 0,0 l/m 0 min 0 min 0,0 UV-I 0 W/m 15,4 km/h (3 Bft)
26.10.2013 19:38 17,7 C 15,6 C 87 % 1009,9 hPa 0,0 l/m 0 min 0 min 0,0 UV-I 0 W/m 7,7 km/h (2 Bft)
26.10.2013 19:40 17,7 C 15,6 C 87 % 1009,8 hPa 0,0 l/m 0 min 0 min 0,0 UV-I 0 W/m 7,7 km/h (2 Bft)
26.10.2013 19:42 17,6 C 15,6 C 87 % 1009,8 hPa 0,0 l/m 0 min 0 min 0,0 UV-I 0 W/m 7,7 km/h (2 Bft)
26.10.2013 19:44 17,6 C 15,6 C 87 % 1009,8 hPa 0,0 l/m 0 min 0 min 0,0 UV-I 0 W/m 2,6 km/h (1 Bft)
26.10.2013 19:46 17,5 C 15,6 C 87 % 1009,8 hPa 0,0 l/m 0 min 0 min 0,0 UV-I 0 W/m 7,7 km/h (2 Bft)
26.10.2013 19:48 17,4 C 15,6 C 87 % 1009,8 hPa 0,0 l/m 0 min 0 min 0,0 UV-I 0 W/m 10,3 km/h (2 Bft)
26.10.2013 19:50 17,4 C 15,6 C 87 % 1009,9 hPa 0,0 l/m 0 min 0 min 0,0 UV-I 0 W/m 10,3 km/h (2 Bft)
26.10.2013 19:52 17,4 C 15,0 C 87 % 1009,9 hPa 0,0 l/m 0 min 0 min 0,0 UV-I 0 W/m 0,0 km/h (0 Bft)
26.10.2013 19:54 17,4 C 15,0 C 88 % 1009,9 hPa 0,0 l/m 0 min 0 min 0,0 UV-I 0 W/m 5,1 km/h (1 Bft)
26.10.2013 19:56 17,4 C 15,0 C 88 % 1009,9 hPa 0,0 l/m 0 min 0 min 0,0 UV-I 0 W/m 7,7 km/h (2 Bft)
26.10.2013 19:58 17,3 C 15,0 C 88 % 1009,9 hPa 0,0 l/m 0 min 0 min 0,0 UV-I 0 W/m 7,7 km/h (2 Bft)
26.10.2013 20:00 17,3 C 15,0 C 88 % 1009,9 hPa 0,0 l/m 0 min 0 min 0,0 UV-I 0 W/m 0,0 km/h (0 Bft)
26.10.2013 20:02 17,2 C 15,0 C 88 % 1009,8 hPa 0,0 l/m 0 min 0 min 0,0 UV-I 0 W/m 2,6 km/h (1 Bft)
26.10.2013 20:06 17,2 C 15,0 C 88 % 1009,8 hPa 0,0 l/m 0 min 0 min 0,0 UV-I 0 W/m 0,0 km/h (0 Bft)
26.10.2013 20:08 17,1 C 15,0 C 88 % 1009,8 hPa 0,0 l/m 0 min 0 min 0,0 UV-I 0 W/m 0,0 km/h (0 Bft)
26.10.2013 20:10 17,1 C 15,0 C 88 % 1009,8 hPa 0,0 l/m 0 min 0 min 0,0 UV-I 0 W/m 2,6 km/h (1 Bft)
26.10.2013 20:12 17,1 C 15,0 C 88 % 1009,8 hPa 0,0 l/m 0 min 0 min 0,0 UV-I 0 W/m 7,7 km/h (2 Bft)
26.10.2013 20:14 17,1 C 15,0 C 88 % 1009,7 hPa 0,0 l/m 0 min 0 min 0,0 UV-I 0 W/m 0,0 km/h (0 Bft)
26.10.2013 20:16 17,1 C 15,0 C 89 % 1009,6 hPa 0,0 l/m 0 min 0 min 0,0 UV-I 0 W/m 7,7 km/h (2 Bft)
26.10.2013 20:18 17,1 C 15,0 C 88 % 1009,6 hPa 0,0 l/m 0 min 0 min 0,0 UV-I 0 W/m 5,1 km/h (1 Bft)
26.10.2013 20:20 17,1 C 15,0 C 88 % 1009,6 hPa 0,0 l/m 0 min 0 min 0,0 UV-I 0 W/m 7,7 km/h (2 Bft)
26.10.2013 20:22 17,1 C 15,0 C 88 % 1009,6 hPa 0,0 l/m 0 min 0 min 0,0 UV-I 0 W/m 12,9 km/h (3 Bft)
26.10.2013 20:24 17,1 C 15,0 C 88 % 1009,6 hPa 0,0 l/m 0 min 0 min 0,0 UV-I 0 W/m 2,6 km/h (1 Bft)
26.10.2013 20:26 17,1 C 15,0 C 88 % 1009,6 hPa 0,0 l/m 0 min 0 min 0,0 UV-I 0 W/m 10,3 km/h (2 Bft)
26.10.2013 20:28 17,1 C 15,0 C 88 % 1009,6 hPa 0,0 l/m 0 min 0 min 0,0 UV-I 0 W/m 5,1 km/h (1 Bft)
26.10.2013 20:30 17,1 C 15,0 C 88 % 1009,6 hPa 0,0 l/m 0 min 0 min 0,0 UV-I 0 W/m 7,7 km/h (2 Bft)
26.10.2013 20:32 17,1 C 15,0 C 88 % 1009,6 hPa 0,0 l/m 0 min 0 min 0,0 UV-I 0 W/m 15,4 km/h (3 Bft)
26.10.2013 20:34 17,1 C 15,0 C 88 % 1009,6 hPa 0,0 l/m 0 min 0 min 0,0 UV-I 0 W/m 0,0 km/h (0 Bft)
26.10.2013 20:36 17,1 C 15,0 C 88 % 1009,6 hPa 0,0 l/m 0 min 0 min 0,0 UV-I 0 W/m 5,1 km/h (1 Bft)
26.10.2013 20:38 17,1 C 15,0 C 88 % 1009,5 hPa 0,0 l/m 0 min 0 min 0,0 UV-I 0 W/m 5,1 km/h (1 Bft)
26.10.2013 20:40 17,0 C 15,0 C 88 % 1009,6 hPa 0,0 l/m 0 min 0 min 0,0 UV-I 0 W/m 7,7 km/h (2 Bft)
26.10.2013 20:42 16,9 C 14,4 C 89 % 1009,6 hPa 0,0 l/m 0 min 0 min 0,0 UV-I 0 W/m 0,0 km/h (0 Bft)
26.10.2013 20:44 16,9 C 14,4 C 89 % 1009,5 hPa 0,0 l/m 0 min 0 min 0,0 UV-I 0 W/m 0,0 km/h (0 Bft)
26.10.2013 20:46 16,8 C 14,4 C 89 % 1009,5 hPa 0,0 l/m 0 min 0 min 0,0 UV-I 0 W/m 0,0 km/h (0 Bft)
26.10.2013 20:48 16,8 C 14,4 C 89 % 1009,5 hPa 0,0 l/m 0 min 0 min 0,0 UV-I 0 W/m 0,0 km/h (0 Bft)
26.10.2013 20:50 16,7 C 14,4 C 89 % 1009,4 hPa 0,0 l/m 0 min 0 min 0,0 UV-I 0 W/m 0,0 km/h (0 Bft)
26.10.2013 20:52 16,7 C 14,4 C 90 % 1009,4 hPa 0,0 l/m 0 min 0 min 0,0 UV-I 0 W/m 2,6 km/h (1 Bft)
26.10.2013 20:54 16,7 C 14,4 C 90 % 1009,4 hPa 0,0 l/m 0 min 0 min 0,0 UV-I 0 W/m 2,6 km/h (1 Bft)
26.10.2013 20:56 16,6 C 14,4 C 90 % 1009,4 hPa 0,0 l/m 0 min 0 min 0,0 UV-I 0 W/m 0,0 km/h (0 Bft)
26.10.2013 20:58 16,6 C 14,4 C 90 % 1009,5 hPa 0,0 l/m 0 min 0 min 0,0 UV-I 0 W/m 0,0 km/h (0 Bft)
26.10.2013 21:00 16,6 C 13,9 C 90 % 1009,6 hPa 0,0 l/m 0 min 0 min 0,0 UV-I 0 W/m 0,0 km/h (0 Bft)
26.10.2013 21:02 16,5 C 13,9 C 90 % 1009,5 hPa 0,0 l/m 0 min 0 min 0,0 UV-I 0 W/m 0,0 km/h (0 Bft)
26.10.2013 21:06 16,4 C 13,9 C 91 % 1009,4 hPa 0,0 l/m 0 min 0 min 0,0 UV-I 0 W/m 2,6 km/h (1 Bft)
26.10.2013 21:08 16,4 C 13,9 C 91 % 1009,5 hPa 0,0 l/m 0 min 0 min 0,0 UV-I 0 W/m 0,0 km/h (0 Bft)
26.10.2013 21:10 16,4 C 14,4 C 91 % 1009,4 hPa 0,0 l/m 0 min 0 min 0,0 UV-I 0 W/m 5,1 km/h (1 Bft)
26.10.2013 21:12 16,4 C 13,9 C 91 % 1009,4 hPa 0,0 l/m 0 min 0 min 0,0 UV-I 0 W/m 7,7 km/h (2 Bft)
26.10.2013 21:14 16,4 C 13,9 C 91 % 1009,4 hPa 0,0 l/m 0 min 0 min 0,0 UV-I 0 W/m 0,0 km/h (0 Bft)
26.10.2013 21:16 16,4 C 13,9 C 91 % 1009,4 hPa 0,0 l/m 0 min 0 min 0,0 UV-I 0 W/m 0,0 km/h (0 Bft)
26.10.2013 21:18 16,4 C 13,9 C 91 % 1009,4 hPa 0,0 l/m 0 min 0 min 0,0 UV-I 0 W/m 0,0 km/h (0 Bft)
26.10.2013 21:20 16,3 C 13,9 C 91 % 1009,5 hPa 0,0 l/m 0 min 0 min 0,0 UV-I 0 W/m 10,3 km/h (2 Bft)
26.10.2013 21:22 16,3 C 13,9 C 91 % 1009,5 hPa 0,0 l/m 0 min 0 min 0,0 UV-I 0 W/m 0,0 km/h (0 Bft)
26.10.2013 21:24 16,3 C 13,9 C 91 % 1009,5 hPa 0,0 l/m 0 min 0 min 0,0 UV-I 0 W/m 0,0 km/h (0 Bft)
26.10.2013 21:26 16,3 C 13,9 C 91 % 1009,4 hPa 0,0 l/m 0 min 0 min 0,0 UV-I 0 W/m 2,6 km/h (1 Bft)
26.10.2013 21:28 16,3 C 13,9 C 92 % 1009,4 hPa 0,0 l/m 0 min 0 min 0,0 UV-I 0 W/m 0,0 km/h (0 Bft)
26.10.2013 21:30 16,2 C 13,9 C 92 % 1009,3 hPa 0,0 l/m 0 min 0 min 0,0 UV-I 0 W/m 0,0 km/h (0 Bft)
26.10.2013 21:32 16,2 C 13,9 C 92 % 1009,3 hPa 0,0 l/m 0 min 0 min 0,0 UV-I 0 W/m 0,0 km/h (0 Bft)
26.10.2013 21:34 16,2 C 13,9 C 92 % 1009,4 hPa 0,0 l/m 0 min 0 min 0,0 UV-I 0 W/m 2,6 km/h (1 Bft)
26.10.2013 21:36 16,1 C 13,9 C 92 % 1009,4 hPa 0,0 l/m 0 min 0 min 0,0 UV-I 0 W/m 2,6 km/h (1 Bft)
26.10.2013 21:38 16,0 C 13,9 C 92 % 1009,4 hPa 0,0 l/m 0 min 0 min 0,0 UV-I 0 W/m 5,1 km/h (1 Bft)
26.10.2013 21:40 15,9 C 13,9 C 92 % 1009,3 hPa 0,0 l/m 0 min 0 min 0,0 UV-I 0 W/m 2,6 km/h (1 Bft)
26.10.2013 21:42 15,9 C 13,9 C 92 % 1009,4 hPa 0,0 l/m 0 min 0 min 0,0 UV-I 0 W/m 0,0 km/h (0 Bft)
26.10.2013 21:44 15,9 C 13,9 C 92 % 1009,4 hPa 0,0 l/m 0 min 0 min 0,0 UV-I 0 W/m 0,0 km/h (0 Bft)
26.10.2013 21:46 15,8 C 13,9 C 93 % 1009,4 hPa 0,0 l/m 0 min 0 min 0,0 UV-I 0 W/m 5,1 km/h (1 Bft)
26.10.2013 21:48 15,8 C 13,9 C 93 % 1009,4 hPa 0,0 l/m 0 min 0 min 0,0 UV-I 0 W/m 0,0 km/h (0 Bft)
26.10.2013 21:50 15,8 C 13,3 C 93 % 1009,3 hPa 0,0 l/m 0 min 0 min 0,0 UV-I 0 W/m 0,0 km/h (0 Bft)
26.10.2013 21:52 15,8 C 13,9 C 93 % 1009,3 hPa 0,0 l/m 0 min 0 min 0,0 UV-I 0 W/m 0,0 km/h (0 Bft)
26.10.2013 21:54 15,8 C 13,9 C 93 % 1009,3 hPa 0,0 l/m 0 min 0 min 0,0 UV-I 0 W/m 10,3 km/h (2 Bft)
26.10.2013 21:56 15,7 C 13,9 C 93 % 1009,3 hPa 0,0 l/m 0 min 0 min 0,0 UV-I 0 W/m 0,0 km/h (0 Bft)
26.10.2013 21:58 15,7 C 13,9 C 93 % 1009,3 hPa 0,0 l/m 0 min 0 min 0,0 UV-I 0 W/m 0,0 km/h (0 Bft)
26.10.2013 22:00 15,7 C 13,9 C 93 % 1009,3 hPa 0,0 l/m 0 min 0 min 0,0 UV-I 0 W/m 2,6 km/h (1 Bft)
26.10.2013 22:02 15,7 C 13,9 C 93 % 1009,2 hPa 0,0 l/m 0 min 0 min 0,0 UV-I 0 W/m 0,0 km/h (0 Bft)
26.10.2013 22:06 15,7 C 13,9 C 93 % 1009,2 hPa 0,0 l/m 0 min 0 min 0,0 UV-I 0 W/m 2,6 km/h (1 Bft)
26.10.2013 22:08 15,7 C 13,9 C 93 % 1009,2 hPa 0,0 l/m 0 min 0 min 0,0 UV-I 0 W/m 12,9 km/h (3 Bft)
26.10.2013 22:10 15,7 C 13,3 C 93 % 1009,3 hPa 0,0 l/m 0 min 0 min 0,0 UV-I 0 W/m 5,1 km/h (1 Bft)
26.10.2013 22:12 15,6 C 13,9 C 93 % 1009,2 hPa 0,0 l/m 0 min 0 min 0,0 UV-I 0 W/m 2,6 km/h (1 Bft)
26.10.2013 22:14 15,6 C 13,9 C 93 % 1009,2 hPa 0,0 l/m 0 min 0 min 0,0 UV-I 0 W/m 0,0 km/h (0 Bft)
26.10.2013 22:16 15,6 C 13,9 C 94 % 1009,2 hPa 0,0 l/m 0 min 0 min 0,0 UV-I 0 W/m 0,0 km/h (0 Bft)
26.10.2013 22:18 15,6 C 13,3 C 94 % 1009,2 hPa 0,0 l/m 0 min 0 min 0,0 UV-I 0 W/m 0,0 km/h (0 Bft)
26.10.2013 22:20 15,6 C 13,3 C 94 % 1009,2 hPa 0,0 l/m 0 min 0 min 0,0 UV-I 0 W/m 0,0 km/h (0 Bft)
26.10.2013 22:22 15,6 C 13,3 C 94 % 1009,2 hPa 0,0 l/m 0 min 0 min 0,0 UV-I 0 W/m 0,0 km/h (0 Bft)
26.10.2013 22:24 15,6 C 13,3 C 94 % 1009,2 hPa 0,0 l/m 0 min 0 min 0,0 UV-I 0 W/m 0,0 km/h (0 Bft)
26.10.2013 22:26 15,6 C 13,3 C 94 % 1009,3 hPa 0,0 l/m 0 min 0 min 0,0 UV-I 0 W/m 0,0 km/h (0 Bft)
26.10.2013 22:28 15,6 C 13,9 C 94 % 1009,3 hPa 0,0 l/m 0 min 0 min 0,0 UV-I 0 W/m 0,0 km/h (0 Bft)
26.10.2013 22:30 15,6 C 13,9 C 94 % 1009,2 hPa 0,0 l/m 0 min 0 min 0,0 UV-I 0 W/m 7,7 km/h (2 Bft)
26.10.2013 22:32 15,6 C 13,9 C 94 % 1009,1 hPa 0,0 l/m 0 min 0 min 0,0 UV-I 0 W/m 0,0 km/h (0 Bft)
26.10.2013 22:34 15,6 C 13,9 C 94 % 1009,1 hPa 0,0 l/m 0 min 0 min 0,0 UV-I 0 W/m 0,0 km/h (0 Bft)
26.10.2013 22:36 15,6 C 13,9 C 94 % 1009,0 hPa 0,0 l/m 0 min 0 min 0,0 UV-I 0 W/m 0,0 km/h (0 Bft)
26.10.2013 22:38 15,6 C 13,3 C 94 % 1009,0 hPa 0,0 l/m 0 min 0 min 0,0 UV-I 0 W/m 10,3 km/h (2 Bft)
26.10.2013 22:40 15,6 C 13,3 C 94 % 1008,9 hPa 0,0 l/m 0 min 0 min 0,0 UV-I 0 W/m 2,6 km/h (1 Bft)
26.10.2013 22:42 15,6 C 13,3 C 94 % 1009,0 hPa 0,0 l/m 0 min 0 min 0,0 UV-I 0 W/m 0,0 km/h (0 Bft)
26.10.2013 22:44 15,6 C 13,3 C 94 % 1008,9 hPa 0,0 l/m 0 min 0 min 0,0 UV-I 0 W/m 0,0 km/h (0 Bft)
26.10.2013 22:46 15,6 C 13,3 C 94 % 1008,9 hPa 0,0 l/m 0 min 0 min 0,0 UV-I 0 W/m 0,0 km/h (0 Bft)
26.10.2013 22:48 15,6 C 13,3 C 94 % 1008,8 hPa 0,0 l/m 0 min 0 min 0,0 UV-I 0 W/m 0,0 km/h (0 Bft)
26.10.2013 22:50 15,6 C 13,3 C 94 % 1008,8 hPa 0,0 l/m 0 min 0 min 0,0 UV-I 0 W/m 5,1 km/h (1 Bft)
26.10.2013 22:52 15,6 C 13,3 C 94 % 1008,8 hPa 0,0 l/m 0 min 0 min 0,0 UV-I 0 W/m 7,7 km/h (2 Bft)
26.10.2013 22:54 15,6 C 13,3 C 94 % 1008,9 hPa 0,0 l/m 0 min 0 min 0,0 UV-I 0 W/m 0,0 km/h (0 Bft)
26.10.2013 22:56 15,6 C 13,3 C 93 % 1008,9 hPa 0,0 l/m 0 min 0 min 0,0 UV-I 0 W/m 7,7 km/h (2 Bft)
26.10.2013 22:58 15,6 C 13,3 C 93 % 1008,9 hPa 0,0 l/m 0 min 0 min 0,0 UV-I 0 W/m 2,6 km/h (1 Bft)
26.10.2013 23:00 15,6 C 13,3 C 93 % 1008,8 hPa 0,0 l/m 0 min 0 min 0,0 UV-I 0 W/m 0,0 km/h (0 Bft)
26.10.2013 23:02 15,6 C 13,3 C 93 % 1008,8 hPa 0,0 l/m 0 min 0 min 0,0 UV-I 0 W/m 2,6 km/h (1 Bft)
26.10.2013 23:06 15,6 C 13,3 C 93 % 1008,7 hPa 0,0 l/m 0 min 0 min 0,0 UV-I 0 W/m 10,3 km/h (2 Bft)
26.10.2013 23:08 15,6 C 13,3 C 93 % 1008,6 hPa 0,0 l/m 0 min 0 min 0,0 UV-I 0 W/m 0,0 km/h (0 Bft)
26.10.2013 23:10 15,6 C 13,3 C 93 % 1008,6 hPa 0,0 l/m 0 min 0 min 0,0 UV-I 0 W/m 7,7 km/h (2 Bft)
26.10.2013 23:12 15,6 C 13,3 C 93 % 1008,6 hPa 0,0 l/m 0 min 0 min 0,0 UV-I 0 W/m 0,0 km/h (0 Bft)
26.10.2013 23:14 15,5 C 13,3 C 93 % 1008,5 hPa 0,0 l/m 0 min 0 min 0,0 UV-I 0 W/m 0,0 km/h (0 Bft)
26.10.2013 23:16 15,4 C 13,3 C 93 % 1008,5 hPa 0,0 l/m 0 min 0 min 0,0 UV-I 0 W/m 0,0 km/h (0 Bft)
26.10.2013 23:18 15,4 C 13,3 C 93 % 1008,5 hPa 0,0 l/m 0 min 0 min 0,0 UV-I 0 W/m 0,0 km/h (0 Bft)
26.10.2013 23:20 15,4 C 13,3 C 93 % 1008,4 hPa 0,0 l/m 0 min 0 min 0,0 UV-I 0 W/m 0,0 km/h (0 Bft)
26.10.2013 23:22 15,3 C 13,3 C 93 % 1008,4 hPa 0,0 l/m 0 min 0 min 0,0 UV-I 0 W/m 0,0 km/h (0 Bft)
26.10.2013 23:24 15,3 C 13,3 C 93 % 1008,2 hPa 0,0 l/m 0 min 0 min 0,0 UV-I 0 W/m 2,6 km/h (1 Bft)
26.10.2013 23:26 15,3 C 13,3 C 93 % 1008,3 hPa 0,0 l/m 0 min 0 min 0,0 UV-I 0 W/m 0,0 km/h (0 Bft)
26.10.2013 23:28 15,2 C 13,3 C 93 % 1008,2 hPa 0,0 l/m 0 min 0 min 0,0 UV-I 0 W/m 0,0 km/h (0 Bft)
26.10.2013 23:30 15,3 C 13,3 C 93 % 1008,3 hPa 0,0 l/m 0 min 0 min 0,0 UV-I 0 W/m 0,0 km/h (0 Bft)
26.10.2013 23:32 15,2 C 12,8 C 94 % 1008,3 hPa 0,0 l/m 0 min 0 min 0,0 UV-I 0 W/m 2,6 km/h (1 Bft)
26.10.2013 23:34 15,3 C 13,3 C 94 % 1008,3 hPa 0,0 l/m 0 min 0 min 0,0 UV-I 0 W/m 0,0 km/h (0 Bft)
26.10.2013 23:36 15,3 C 13,3 C 94 % 1008,4 hPa 0,0 l/m 0 min 0 min 0,0 UV-I 0 W/m 0,0 km/h (0 Bft)
26.10.2013 23:38 15,3 C 13,3 C 94 % 1008,3 hPa 0,0 l/m 0 min 0 min 0,0 UV-I 0 W/m 0,0 km/h (0 Bft)
26.10.2013 23:40 15,3 C 13,3 C 94 % 1008,2 hPa 0,0 l/m 0 min 0 min 0,0 UV-I 0 W/m 2,6 km/h (1 Bft)
26.10.2013 23:42 15,4 C 13,3 C 94 % 1008,2 hPa 0,0 l/m 0 min 0 min 0,0 UV-I 0 W/m 0,0 km/h (0 Bft)
26.10.2013 23:44 15,4 C 13,3 C 94 % 1008,3 hPa 0,0 l/m 0 min 0 min 0,0 UV-I 0 W/m 0,0 km/h (0 Bft)
26.10.2013 23:46 15,4 C 13,3 C 94 % 1008,2 hPa 0,0 l/m 0 min 0 min 0,0 UV-I 0 W/m 2,6 km/h (1 Bft)
26.10.2013 23:48 15,4 C 13,3 C 94 % 1008,2 hPa 0,0 l/m 0 min 0 min 0,0 UV-I 0 W/m 0,0 km/h (0 Bft)
26.10.2013 23:50 15,4 C 13,3 C 94 % 1008,2 hPa 0,0 l/m 0 min 0 min 0,0 UV-I 0 W/m 2,6 km/h (1 Bft)
26.10.2013 23:52 15,4 C 13,3 C 94 % 1008,2 hPa 0,0 l/m 0 min 0 min 0,0 UV-I 0 W/m 5,1 km/h (1 Bft)
26.10.2013 23:54 15,5 C 13,3 C 94 % 1008,2 hPa 0,0 l/m 0 min 0 min 0,0 UV-I 0 W/m 2,6 km/h (1 Bft)
26.10.2013 23:56 15,6 C 13,3 C 94 % 1008,1 hPa 0,0 l/m 0 min 0 min 0,0 UV-I 0 W/m 0,0 km/h (0 Bft)
26.10.2013 23:58 15,5 C 13,3 C 94 % 1008,1 hPa 0,0 l/m 0 min 0 min 0,0 UV-I 0 W/m 0,0 km/h (0 Bft)
_ Min-Zeit 07:12 05:54 15:20 23:56 - - - - - 00:00
Minimum _ 13,7 C 12,2 C 69 % 1008,1 hPa - - - - - 0,0 km/h (0 Bft)
_ Max-Zeit 15:18 14:12 00:20 10:16 00:00 10:48 00:00 13:40 14:12 18:12
Maximum _ 21,6 C 19,4 C 99 % 1012,0 hPa 0,2 l/m 2 min 2 min 1,2 UV-I 543 W/m 33,5 km/h
S-SO (5 Bft)
Durchschnitt _ 16,7 C 14,8 C 91 % 1010,5 hPa #0,8 l/m #4:18 h #1:44 h 0,7 UV-I 190 W/m 5,8 km/h (1 Bft)
© 2013 W. Hausmann